LNI801 WIDD-OEJN
Flight info
| Callsign | LNI801 |
|---|---|
| Flight time | 9h 11m |
| Altitude | 36000 |
| Route | TUSNU W22 PKU P570 VEVET/N0472F380 P570 TVM UL425 DONSA UM551 ANGAL/N0471F400 M551 KIVEL B549 THAMD P323 WDR L425 BOSUT |
| Aircraft | A332/H-SDE3GHIJ2J3J5M1RVWXY/LB2D1 |
Departure
| Time | 2026-04-21 14:07 |
|---|---|
| Airport | Hang Nadim International Airport (WIDD) |
Arrival
| Time | 2026-04-21 23:18 |
|---|---|
| Airport | King Abdulaziz International Airport (OEJN) |
| Time | Latitude | Longitude | Altitude | Speed | Heading |
|---|---|---|---|---|---|
| 2026-04-21 13:26 | 1.12360 | 104.11693 | 137 ft | 0 kts | 314° |
| 2026-04-21 13:56 | 1.12351 | 104.11703 | 138 ft | 2 kts | 314° |
| 2026-04-21 13:56 | 1.12341 | 104.11713 | 137 ft | 2 kts | 314° |
| 2026-04-21 13:56 | 1.12329 | 104.11723 | 138 ft | 2 kts | 330° |
| 2026-04-21 13:57 | 1.12315 | 104.11729 | 137 ft | 2 kts | 348° |
| 2026-04-21 13:57 | 1.12301 | 104.11729 | 137 ft | 2 kts | 5° |
| 2026-04-21 13:57 | 1.12290 | 104.11728 | 137 ft | 2 kts | 18° |
| 2026-04-21 13:57 | 1.12281 | 104.11724 | 137 ft | 2 kts | 29° |
| 2026-04-21 13:58 | 1.12272 | 104.11718 | 137 ft | 0 kts | 41° |
| 2026-04-21 13:58 | 1.12270 | 104.11716 | 137 ft | 0 kts | 42° |
| 2026-04-21 14:00 | 1.12275 | 104.11722 | 137 ft | 3 kts | 45° |
| 2026-04-21 14:01 | 1.12313 | 104.11755 | 137 ft | 11 kts | 45° |
| 2026-04-21 14:01 | 1.12331 | 104.11828 | 137 ft | 6 kts | 89° |
| 2026-04-21 14:01 | 1.12345 | 104.11869 | 137 ft | 10 kts | 56° |
| 2026-04-21 14:01 | 1.12394 | 104.11921 | 138 ft | 8 kts | 34° |
| 2026-04-21 14:02 | 1.12421 | 104.11945 | 137 ft | 7 kts | 45° |
| 2026-04-21 14:02 | 1.12489 | 104.12003 | 137 ft | 17 kts | 40° |
| 2026-04-21 14:02 | 1.12567 | 104.12073 | 138 ft | 12 kts | 44° |
| 2026-04-21 14:03 | 1.12739 | 104.12233 | 137 ft | 30 kts | 41° |
| 2026-04-21 14:03 | 1.12917 | 104.12384 | 138 ft | 23 kts | 39° |
| 2026-04-21 14:03 | 1.13012 | 104.12469 | 137 ft | 14 kts | 40° |
| 2026-04-21 14:03 | 1.13073 | 104.12521 | 137 ft | 10 kts | 40° |
| 2026-04-21 14:04 | 1.13127 | 104.12569 | 137 ft | 12 kts | 42° |
| 2026-04-21 14:04 | 1.13199 | 104.12635 | 137 ft | 16 kts | 43° |
| 2026-04-21 14:04 | 1.13232 | 104.12736 | 137 ft | 14 kts | 116° |
| 2026-04-21 14:04 | 1.13193 | 104.12802 | 137 ft | 8 kts | 100° |
| 2026-04-21 14:05 | 1.13244 | 104.12888 | 137 ft | 18 kts | 32° |
| 2026-04-21 14:05 | 1.13325 | 104.12959 | 137 ft | 13 kts | 41° |
| 2026-04-21 14:05 | 1.13430 | 104.12997 | 138 ft | 16 kts | 26° |
| 2026-04-21 14:05 | 1.13439 | 104.13041 | 137 ft | 3 kts | 170° |
| 2026-04-21 14:06 | 1.13382 | 104.13013 | 137 ft | 12 kts | 223° |
| 2026-04-21 14:06 | 1.13245 | 104.12887 | 137 ft | 49 kts | 220° |
| 2026-04-21 14:06 | 1.12854 | 104.12547 | 137 ft | 98 kts | 223° |
| 2026-04-21 14:06 | 1.12219 | 104.11992 | 137 ft | 144 kts | 221° |
| 2026-04-21 14:07 | 1.11369 | 104.11227 | 148 ft | 185 kts | 223° |
| 2026-04-21 14:07 | 1.10407 | 104.10368 | 703 ft | 190 kts | 223° |
| 2026-04-21 14:07 | 1.09389 | 104.09419 | 1014 ft | 213 kts | 224° |
| 2026-04-21 14:07 | 1.08212 | 104.08315 | 1250 ft | 244 kts | 223° |
| 2026-04-21 14:08 | 1.06972 | 104.07196 | 1940 ft | 242 kts | 223° |
| 2026-04-21 14:08 | 1.05721 | 104.06070 | 2604 ft | 244 kts | 222° |
| 2026-04-21 14:08 | 1.04469 | 104.04951 | 3258 ft | 246 kts | 222° |
| 2026-04-21 14:08 | 1.03176 | 104.03784 | 3774 ft | 256 kts | 227° |
| 2026-04-21 14:09 | 1.02322 | 104.02203 | 4121 ft | 267 kts | 262° |
| 2026-04-21 14:09 | 1.02195 | 104.00377 | 4720 ft | 268 kts | 266° |
| 2026-04-21 14:09 | 1.01968 | 103.98508 | 5379 ft | 270 kts | 260° |
| 2026-04-21 14:09 | 1.01603 | 103.96677 | 6047 ft | 273 kts | 258° |
| 2026-04-21 14:10 | 1.01190 | 103.94835 | 6708 ft | 275 kts | 257° |
| 2026-04-21 14:10 | 1.00734 | 103.92959 | 7362 ft | 278 kts | 256° |
| 2026-04-21 14:10 | 1.00257 | 103.91102 | 8005 ft | 280 kts | 256° |
| 2026-04-21 14:10 | 0.99753 | 103.89199 | 8647 ft | 283 kts | 256° |
| 2026-04-21 14:11 | 0.99242 | 103.87308 | 9276 ft | 286 kts | 255° |
| 2026-04-21 14:11 | 0.98716 | 103.85385 | 9897 ft | 288 kts | 255° |
| 2026-04-21 14:11 | 0.98185 | 103.83459 | 10376 ft | 297 kts | 255° |
| 2026-04-21 14:11 | 0.97611 | 103.81384 | 10580 ft | 316 kts | 255° |
| 2026-04-21 14:12 | 0.97011 | 103.79227 | 10859 ft | 332 kts | 255° |
| 2026-04-21 14:12 | 0.96375 | 103.76951 | 11133 ft | 348 kts | 255° |
| 2026-04-21 14:12 | 0.95721 | 103.74615 | 11600 ft | 353 kts | 255° |
| 2026-04-21 14:12 | 0.95060 | 103.72250 | 12199 ft | 356 kts | 255° |
| 2026-04-21 14:13 | 0.94392 | 103.69860 | 12836 ft | 359 kts | 255° |
| 2026-04-21 14:13 | 0.93723 | 103.67465 | 13483 ft | 362 kts | 255° |
| 2026-04-21 14:13 | 0.93039 | 103.65018 | 14125 ft | 365 kts | 255° |
| 2026-04-21 14:13 | 0.92358 | 103.62580 | 14735 ft | 369 kts | 255° |
| 2026-04-21 14:14 | 0.91665 | 103.60098 | 15345 ft | 372 kts | 255° |
| 2026-04-21 14:14 | 0.90974 | 103.57625 | 15941 ft | 375 kts | 255° |
| 2026-04-21 14:14 | 0.90270 | 103.55104 | 16525 ft | 378 kts | 255° |
| 2026-04-21 14:14 | 0.89555 | 103.52551 | 17103 ft | 382 kts | 255° |
| 2026-04-21 14:15 | 0.88836 | 103.50021 | 17661 ft | 385 kts | 255° |
| 2026-04-21 14:15 | 0.88105 | 103.47426 | 18218 ft | 388 kts | 255° |
| 2026-04-21 14:15 | 0.87373 | 103.44813 | 18762 ft | 391 kts | 255° |
| 2026-04-21 14:15 | 0.86640 | 103.42193 | 19291 ft | 394 kts | 255° |
| 2026-04-21 14:16 | 0.85907 | 103.39571 | 19810 ft | 397 kts | 255° |
| 2026-04-21 14:16 | 0.85159 | 103.36894 | 20325 ft | 400 kts | 255° |
| 2026-04-21 14:16 | 0.84404 | 103.34190 | 20829 ft | 403 kts | 255° |
| 2026-04-21 14:16 | 0.83657 | 103.31507 | 21313 ft | 406 kts | 255° |
| 2026-04-21 14:17 | 0.82897 | 103.28777 | 21795 ft | 409 kts | 255° |
| 2026-04-21 14:17 | 0.82127 | 103.26017 | 22267 ft | 412 kts | 255° |
| 2026-04-21 14:17 | 0.81358 | 103.23261 | 22724 ft | 415 kts | 255° |
| 2026-04-21 14:17 | 0.80578 | 103.20469 | 23174 ft | 418 kts | 255° |
| 2026-04-21 14:18 | 0.79797 | 103.17673 | 23612 ft | 421 kts | 255° |
| 2026-04-21 14:18 | 0.79009 | 103.14847 | 24041 ft | 424 kts | 255° |
| 2026-04-21 14:18 | 0.78222 | 103.12031 | 24457 ft | 426 kts | 255° |
| 2026-04-21 14:18 | 0.77418 | 103.09150 | 24870 ft | 429 kts | 255° |
| 2026-04-21 14:19 | 0.76619 | 103.06288 | 25268 ft | 432 kts | 255° |
| 2026-04-21 14:19 | 0.75817 | 103.03416 | 25656 ft | 434 kts | 255° |
| 2026-04-21 14:19 | 0.75004 | 103.00503 | 26042 ft | 437 kts | 255° |
| 2026-04-21 14:19 | 0.74179 | 102.97549 | 26420 ft | 439 kts | 255° |
| 2026-04-21 14:20 | 0.73365 | 102.94634 | 26783 ft | 442 kts | 255° |
| 2026-04-21 14:20 | 0.72530 | 102.91644 | 27147 ft | 444 kts | 255° |
| 2026-04-21 14:20 | 0.71702 | 102.88677 | 27498 ft | 446 kts | 255° |
| 2026-04-21 14:20 | 0.70868 | 102.85690 | 27841 ft | 449 kts | 255° |
| 2026-04-21 14:21 | 0.70022 | 102.82661 | 28181 ft | 451 kts | 255° |
| 2026-04-21 14:21 | 0.69183 | 102.79655 | 28508 ft | 453 kts | 255° |
| 2026-04-21 14:21 | 0.68332 | 102.76606 | 28830 ft | 456 kts | 255° |
| 2026-04-21 14:21 | 0.67482 | 102.73564 | 29144 ft | 458 kts | 255° |
| 2026-04-21 14:22 | 0.66626 | 102.70496 | 29452 ft | 460 kts | 255° |
| 2026-04-21 14:22 | 0.65763 | 102.67406 | 29753 ft | 462 kts | 255° |
| 2026-04-21 14:22 | 0.64897 | 102.64305 | 30008 ft | 462 kts | 255° |
| 2026-04-21 14:23 | 0.63162 | 102.58096 | 30007 ft | 465 kts | 255° |
| 2026-04-21 14:23 | 0.61426 | 102.51881 | 30320 ft | 467 kts | 255° |
| 2026-04-21 14:23 | 0.60551 | 102.48750 | 30594 ft | 468 kts | 255° |
| 2026-04-21 14:24 | 0.59672 | 102.45609 | 30902 ft | 467 kts | 255° |
| 2026-04-21 14:24 | 0.58807 | 102.42519 | 31209 ft | 467 kts | 255° |
| 2026-04-21 14:24 | 0.57930 | 102.39389 | 31517 ft | 466 kts | 255° |
| 2026-04-21 14:24 | 0.57057 | 102.36289 | 31819 ft | 465 kts | 255° |
| 2026-04-21 14:25 | 0.56400 | 102.33143 | 32105 ft | 465 kts | 262° |
| 2026-04-21 14:25 | 0.55961 | 102.29936 | 32381 ft | 464 kts | 262° |
| 2026-04-21 14:25 | 0.55471 | 102.26762 | 32657 ft | 464 kts | 262° |
| 2026-04-21 14:25 | 0.54974 | 102.23589 | 32929 ft | 463 kts | 262° |
| 2026-04-21 14:26 | 0.54483 | 102.20428 | 33194 ft | 462 kts | 262° |
| 2026-04-21 14:26 | 0.53986 | 102.17235 | 33455 ft | 462 kts | 262° |
| 2026-04-21 14:26 | 0.53495 | 102.14082 | 33706 ft | 461 kts | 262° |
| 2026-04-21 14:26 | 0.53001 | 102.10913 | 33952 ft | 461 kts | 262° |
| 2026-04-21 14:27 | 0.52511 | 102.07765 | 34191 ft | 460 kts | 262° |
| 2026-04-21 14:27 | 0.52017 | 102.04597 | 34424 ft | 460 kts | 262° |
| 2026-04-21 14:27 | 0.51527 | 102.01457 | 34649 ft | 459 kts | 262° |
| 2026-04-21 14:27 | 0.51035 | 101.98294 | 34869 ft | 459 kts | 262° |
| 2026-04-21 14:28 | 0.50550 | 101.95187 | 35080 ft | 459 kts | 262° |
| 2026-04-21 14:28 | 0.50057 | 101.92024 | 35288 ft | 458 kts | 262° |
| 2026-04-21 14:28 | 0.49568 | 101.88882 | 35489 ft | 458 kts | 262° |
| 2026-04-21 14:28 | 0.49079 | 101.85747 | 35683 ft | 457 kts | 262° |
| 2026-04-21 14:29 | 0.48592 | 101.82625 | 35870 ft | 457 kts | 262° |
| 2026-04-21 14:29 | 0.48101 | 101.79473 | 36032 ft | 460 kts | 262° |
| 2026-04-21 14:29 | 0.47610 | 101.76321 | 35992 ft | 467 kts | 262° |
| 2026-04-21 14:30 | 0.46611 | 101.69923 | 36005 ft | 465 kts | 262° |
| 2026-04-21 14:30 | 0.45618 | 101.63555 | 35998 ft | 464 kts | 262° |
| 2026-04-21 14:31 | 0.44623 | 101.57189 | 36002 ft | 463 kts | 262° |
| 2026-04-21 14:31 | 0.43629 | 101.50838 | 36000 ft | 464 kts | 262° |
| 2026-04-21 14:32 | 0.43103 | 101.44487 | 36019 ft | 462 kts | 281° |
| 2026-04-21 14:32 | 0.44022 | 101.41389 | 36036 ft | 464 kts | 292° |
| 2026-04-21 14:32 | 0.45223 | 101.38397 | 35990 ft | 464 kts | 292° |
| 2026-04-21 14:33 | 0.47693 | 101.32459 | 36005 ft | 463 kts | 294° |
| 2026-04-21 14:33 | 0.50227 | 101.26549 | 35998 ft | 464 kts | 294° |
| 2026-04-21 14:34 | 0.52772 | 101.20654 | 36001 ft | 463 kts | 294° |
| 2026-04-21 14:34 | 0.55310 | 101.14784 | 36000 ft | 463 kts | 294° |
| 2026-04-21 14:35 | 0.57856 | 101.08897 | 36000 ft | 463 kts | 294° |
| 2026-04-21 14:35 | 0.60419 | 101.02971 | 36000 ft | 463 kts | 294° |
| 2026-04-21 14:36 | 0.62978 | 100.97056 | 36000 ft | 463 kts | 294° |
| 2026-04-21 14:36 | 0.65521 | 100.91175 | 36000 ft | 463 kts | 294° |
| 2026-04-21 14:37 | 0.68078 | 100.85263 | 36000 ft | 463 kts | 294° |
| 2026-04-21 14:37 | 0.70632 | 100.79356 | 36000 ft | 463 kts | 294° |
| 2026-04-21 14:38 | 0.73179 | 100.73468 | 36000 ft | 463 kts | 294° |
| 2026-04-21 14:38 | 0.75726 | 100.67580 | 36000 ft | 463 kts | 294° |
| 2026-04-21 14:39 | 0.78283 | 100.61667 | 36000 ft | 463 kts | 294° |
| 2026-04-21 14:39 | 0.80843 | 100.55746 | 36000 ft | 463 kts | 294° |
| 2026-04-21 14:40 | 0.83403 | 100.49827 | 36000 ft | 463 kts | 294° |
| 2026-04-21 14:40 | 0.85955 | 100.43925 | 36000 ft | 463 kts | 294° |
| 2026-04-21 14:41 | 0.88508 | 100.38023 | 36000 ft | 463 kts | 294° |
| 2026-04-21 14:41 | 0.91050 | 100.32139 | 36000 ft | 463 kts | 294° |
| 2026-04-21 14:42 | 0.93601 | 100.26225 | 36000 ft | 463 kts | 294° |
| 2026-04-21 14:42 | 0.96163 | 100.20300 | 36000 ft | 463 kts | 294° |
| 2026-04-21 14:43 | 0.98711 | 100.14409 | 36000 ft | 463 kts | 294° |
| 2026-04-21 14:43 | 1.01246 | 100.08546 | 36000 ft | 463 kts | 294° |
| 2026-04-21 14:44 | 1.03810 | 100.02614 | 36000 ft | 463 kts | 294° |
| 2026-04-21 14:44 | 1.06347 | 99.96746 | 36000 ft | 463 kts | 294° |
| 2026-04-21 14:45 | 1.08912 | 99.90809 | 36000 ft | 463 kts | 294° |
| 2026-04-21 14:45 | 1.11441 | 99.84963 | 36000 ft | 463 kts | 294° |
| 2026-04-21 14:46 | 1.13992 | 99.79066 | 36001 ft | 463 kts | 294° |
| 2026-04-21 14:46 | 1.16575 | 99.73149 | 36000 ft | 463 kts | 294° |
| 2026-04-21 14:47 | 1.19124 | 99.67260 | 36000 ft | 463 kts | 294° |
| 2026-04-21 14:47 | 1.21674 | 99.61361 | 36000 ft | 463 kts | 294° |
| 2026-04-21 14:48 | 1.24229 | 99.55450 | 36000 ft | 463 kts | 294° |
| 2026-04-21 14:48 | 1.26793 | 99.49519 | 36000 ft | 463 kts | 294° |
| 2026-04-21 14:49 | 1.29339 | 99.43628 | 36000 ft | 463 kts | 294° |
| 2026-04-21 14:49 | 1.31881 | 99.37746 | 36000 ft | 463 kts | 294° |
| 2026-04-21 14:50 | 1.34014 | 99.32806 | 36000 ft | 463 kts | 294° |
| 2026-04-21 14:50 | 1.36978 | 99.25930 | 36000 ft | 463 kts | 294° |
| 2026-04-21 14:51 | 1.39523 | 99.20039 | 36000 ft | 463 kts | 294° |
| 2026-04-21 14:51 | 1.42092 | 99.14095 | 36000 ft | 463 kts | 294° |
| 2026-04-21 14:52 | 1.44637 | 99.08207 | 36000 ft | 463 kts | 294° |
| 2026-04-21 14:52 | 1.47189 | 99.02303 | 36000 ft | 463 kts | 294° |
| 2026-04-21 14:53 | 1.49735 | 98.96411 | 36000 ft | 463 kts | 294° |
| 2026-04-21 14:53 | 1.52291 | 98.90498 | 36000 ft | 463 kts | 294° |
| 2026-04-21 14:54 | 1.54844 | 98.84591 | 36000 ft | 463 kts | 294° |
| 2026-04-21 14:54 | 1.57378 | 98.78727 | 36000 ft | 463 kts | 294° |
| 2026-04-21 14:55 | 1.59947 | 98.72783 | 36000 ft | 463 kts | 294° |
| 2026-04-21 14:55 | 1.62495 | 98.66888 | 36000 ft | 463 kts | 294° |
| 2026-04-21 14:56 | 1.65043 | 98.60991 | 36000 ft | 463 kts | 294° |
| 2026-04-21 14:56 | 1.67596 | 98.55084 | 36000 ft | 463 kts | 294° |
| 2026-04-21 14:57 | 1.70146 | 98.49184 | 36000 ft | 463 kts | 294° |
| 2026-04-21 14:57 | 1.72702 | 98.43266 | 36000 ft | 463 kts | 294° |
| 2026-04-21 14:58 | 1.75252 | 98.37364 | 36000 ft | 463 kts | 294° |
| 2026-04-21 14:58 | 1.77793 | 98.31470 | 36000 ft | 463 kts | 294° |
| 2026-04-21 14:59 | 1.80331 | 98.25584 | 36000 ft | 463 kts | 294° |
| 2026-04-21 14:59 | 1.82883 | 98.19665 | 36000 ft | 463 kts | 294° |
| 2026-04-21 15:00 | 1.85434 | 98.13761 | 36000 ft | 463 kts | 294° |
| 2026-04-21 15:00 | 1.87990 | 98.07880 | 36000 ft | 463 kts | 294° |
| 2026-04-21 15:01 | 1.90557 | 98.01940 | 36000 ft | 463 kts | 294° |
| 2026-04-21 15:01 | 1.93105 | 97.96043 | 36000 ft | 463 kts | 294° |
| 2026-04-21 15:02 | 1.95642 | 97.90170 | 36000 ft | 463 kts | 294° |
| 2026-04-21 15:02 | 1.98192 | 97.84264 | 36000 ft | 463 kts | 294° |
| 2026-04-21 15:03 | 2.00750 | 97.78341 | 36000 ft | 463 kts | 294° |
| 2026-04-21 15:03 | 2.03292 | 97.72457 | 36000 ft | 463 kts | 294° |
| 2026-04-21 15:04 | 2.05851 | 97.66531 | 36000 ft | 463 kts | 294° |
| 2026-04-21 15:04 | 2.08393 | 97.60646 | 36000 ft | 463 kts | 294° |
| 2026-04-21 15:05 | 2.10942 | 97.54753 | 36001 ft | 463 kts | 294° |
| 2026-04-21 15:05 | 2.14770 | 97.45927 | 36001 ft | 463 kts | 294° |
| 2026-04-21 15:06 | 2.17333 | 97.39996 | 36000 ft | 463 kts | 294° |
| 2026-04-21 15:06 | 2.19876 | 97.34109 | 36000 ft | 463 kts | 294° |
| 2026-04-21 15:07 | 2.22419 | 97.28195 | 36000 ft | 463 kts | 294° |
| 2026-04-21 15:07 | 2.24967 | 97.22292 | 36000 ft | 463 kts | 294° |
| 2026-04-21 15:08 | 2.27513 | 97.16395 | 36000 ft | 463 kts | 294° |
| 2026-04-21 15:08 | 2.30071 | 97.10473 | 36000 ft | 463 kts | 294° |
| 2026-04-21 15:09 | 2.32611 | 97.04591 | 36000 ft | 463 kts | 294° |
| 2026-04-21 15:09 | 2.35166 | 96.98674 | 36000 ft | 463 kts | 294° |
| 2026-04-21 15:10 | 2.37712 | 96.92778 | 36000 ft | 463 kts | 294° |
| 2026-04-21 15:10 | 2.40258 | 96.86882 | 36000 ft | 463 kts | 294° |
| 2026-04-21 15:11 | 2.42812 | 96.80969 | 36000 ft | 463 kts | 294° |
| 2026-04-21 15:11 | 2.45357 | 96.75074 | 36000 ft | 463 kts | 294° |
| 2026-04-21 15:12 | 2.47910 | 96.69159 | 36000 ft | 463 kts | 294° |
| 2026-04-21 15:12 | 2.50461 | 96.63246 | 36000 ft | 463 kts | 294° |
| 2026-04-21 15:13 | 2.53004 | 96.57347 | 36000 ft | 463 kts | 294° |
| 2026-04-21 15:13 | 2.55540 | 96.51439 | 36000 ft | 463 kts | 294° |
| 2026-04-21 15:14 | 2.58093 | 96.45538 | 36001 ft | 463 kts | 294° |
| 2026-04-21 15:14 | 2.60614 | 96.39645 | 36000 ft | 463 kts | 294° |
| 2026-04-21 15:15 | 2.63154 | 96.33696 | 36000 ft | 463 kts | 294° |
| 2026-04-21 15:15 | 2.65651 | 96.27820 | 36000 ft | 463 kts | 294° |
| 2026-04-21 15:16 | 2.68179 | 96.21893 | 36000 ft | 463 kts | 294° |
| 2026-04-21 15:16 | 2.70704 | 96.15976 | 36000 ft | 463 kts | 294° |
| 2026-04-21 15:17 | 2.73229 | 96.10059 | 36000 ft | 463 kts | 294° |
| 2026-04-21 15:17 | 2.75756 | 96.04137 | 36000 ft | 463 kts | 294° |
| 2026-04-21 15:18 | 2.78278 | 95.98226 | 36000 ft | 463 kts | 294° |
| 2026-04-21 15:18 | 2.80818 | 95.92275 | 36000 ft | 463 kts | 294° |
| 2026-04-21 15:19 | 2.83333 | 95.86382 | 36000 ft | 463 kts | 294° |
| 2026-04-21 15:19 | 2.85856 | 95.80469 | 36000 ft | 463 kts | 294° |
| 2026-04-21 15:20 | 2.88392 | 95.74526 | 36000 ft | 463 kts | 294° |
| 2026-04-21 15:20 | 2.90919 | 95.68607 | 36000 ft | 463 kts | 294° |
| 2026-04-21 15:21 | 2.93443 | 95.62691 | 36000 ft | 463 kts | 294° |
| 2026-04-21 15:21 | 2.95968 | 95.56773 | 36000 ft | 463 kts | 294° |
| 2026-04-21 15:22 | 2.98492 | 95.50859 | 36000 ft | 463 kts | 294° |
| 2026-04-21 15:22 | 3.01025 | 95.44923 | 36000 ft | 463 kts | 294° |
| 2026-04-21 15:23 | 3.03559 | 95.38983 | 36000 ft | 463 kts | 294° |
| 2026-04-21 15:23 | 3.06080 | 95.33073 | 36000 ft | 463 kts | 294° |
| 2026-04-21 15:24 | 3.08596 | 95.27155 | 36000 ft | 463 kts | 294° |
| 2026-04-21 15:24 | 3.11135 | 95.21212 | 36000 ft | 463 kts | 294° |
| 2026-04-21 15:25 | 3.13671 | 95.15296 | 36000 ft | 463 kts | 294° |
| 2026-04-21 15:25 | 3.16185 | 95.09403 | 36000 ft | 463 kts | 294° |
| 2026-04-21 15:26 | 3.18714 | 95.03474 | 36000 ft | 463 kts | 294° |
| 2026-04-21 15:26 | 3.21237 | 94.97555 | 36000 ft | 463 kts | 294° |
| 2026-04-21 15:27 | 3.23763 | 94.91622 | 36000 ft | 463 kts | 294° |
| 2026-04-21 15:27 | 3.26262 | 94.85721 | 36000 ft | 463 kts | 292° |
| 2026-04-21 15:28 | 3.28060 | 94.79527 | 35998 ft | 464 kts | 285° |
| 2026-04-21 15:28 | 3.29678 | 94.73326 | 36002 ft | 463 kts | 285° |
| 2026-04-21 15:29 | 3.31310 | 94.67059 | 36000 ft | 463 kts | 285° |
| 2026-04-21 15:29 | 3.32931 | 94.60839 | 36001 ft | 463 kts | 285° |
| 2026-04-21 15:30 | 3.34554 | 94.54606 | 36000 ft | 463 kts | 285° |
| 2026-04-21 15:30 | 3.36177 | 94.48377 | 36000 ft | 463 kts | 285° |
| 2026-04-21 15:31 | 3.37788 | 94.42191 | 36000 ft | 463 kts | 285° |
| 2026-04-21 15:31 | 3.39411 | 94.35960 | 36000 ft | 463 kts | 285° |
| 2026-04-21 15:32 | 3.41036 | 94.29694 | 36000 ft | 463 kts | 285° |
| 2026-04-21 15:32 | 3.42656 | 94.23463 | 36000 ft | 463 kts | 285° |
| 2026-04-21 15:33 | 3.44278 | 94.17231 | 36000 ft | 463 kts | 285° |
| 2026-04-21 15:33 | 3.45897 | 94.11015 | 36000 ft | 463 kts | 285° |
| 2026-04-21 15:34 | 3.47512 | 94.04813 | 36000 ft | 463 kts | 285° |
| 2026-04-21 15:34 | 3.49143 | 93.98556 | 36000 ft | 463 kts | 285° |
| 2026-04-21 15:35 | 3.50767 | 93.92322 | 36000 ft | 463 kts | 285° |
| 2026-04-21 15:35 | 3.52386 | 93.86103 | 36000 ft | 463 kts | 285° |
| 2026-04-21 15:36 | 3.54011 | 93.79866 | 36000 ft | 463 kts | 285° |
| 2026-04-21 15:36 | 3.55629 | 93.73656 | 36000 ft | 463 kts | 285° |
| 2026-04-21 15:37 | 3.57249 | 93.67435 | 36000 ft | 463 kts | 285° |
| 2026-04-21 15:37 | 3.58878 | 93.61181 | 36000 ft | 463 kts | 285° |
| 2026-04-21 15:38 | 3.60494 | 93.54977 | 36000 ft | 463 kts | 285° |
| 2026-04-21 15:38 | 3.62125 | 93.48714 | 36000 ft | 463 kts | 285° |
| 2026-04-21 15:39 | 3.63747 | 93.42491 | 36000 ft | 463 kts | 285° |
| 2026-04-21 15:39 | 3.65364 | 93.36279 | 36000 ft | 463 kts | 285° |
| 2026-04-21 15:40 | 3.66982 | 93.30042 | 36000 ft | 463 kts | 285° |
| 2026-04-21 15:40 | 3.68600 | 93.23817 | 36000 ft | 463 kts | 285° |
| 2026-04-21 15:41 | 3.70229 | 93.17563 | 36000 ft | 463 kts | 285° |
| 2026-04-21 15:41 | 3.71842 | 93.11370 | 36000 ft | 463 kts | 285° |
| 2026-04-21 15:42 | 3.73469 | 93.05124 | 36000 ft | 463 kts | 285° |
| 2026-04-21 15:42 | 3.75087 | 92.98910 | 36000 ft | 463 kts | 285° |
| 2026-04-21 15:43 | 3.76716 | 92.92655 | 36000 ft | 463 kts | 285° |
| 2026-04-21 15:43 | 3.78330 | 92.86460 | 36000 ft | 463 kts | 285° |
| 2026-04-21 15:44 | 3.79959 | 92.80205 | 36000 ft | 463 kts | 285° |
| 2026-04-21 15:44 | 3.81586 | 92.73958 | 36000 ft | 463 kts | 285° |
| 2026-04-21 15:45 | 3.83201 | 92.67759 | 36000 ft | 463 kts | 285° |
| 2026-04-21 15:45 | 3.84824 | 92.61526 | 36000 ft | 463 kts | 285° |
| 2026-04-21 15:46 | 3.86453 | 92.55270 | 36000 ft | 463 kts | 285° |
| 2026-04-21 15:46 | 3.88080 | 92.49023 | 36000 ft | 463 kts | 285° |
| 2026-04-21 15:47 | 3.89702 | 92.42793 | 36000 ft | 463 kts | 285° |
| 2026-04-21 15:47 | 3.91321 | 92.36578 | 36000 ft | 463 kts | 285° |
| 2026-04-21 15:48 | 3.92932 | 92.30365 | 36000 ft | 463 kts | 285° |
| 2026-04-21 15:48 | 3.94553 | 92.24129 | 36000 ft | 463 kts | 285° |
| 2026-04-21 15:49 | 3.96183 | 92.17863 | 36000 ft | 463 kts | 285° |
| 2026-04-21 15:49 | 3.97805 | 92.11629 | 36000 ft | 463 kts | 285° |
| 2026-04-21 15:50 | 3.99418 | 92.05415 | 36000 ft | 463 kts | 285° |
| 2026-04-21 15:50 | 4.01032 | 91.99161 | 36000 ft | 463 kts | 285° |
| 2026-04-21 15:51 | 4.02610 | 91.92958 | 36000 ft | 463 kts | 285° |
| 2026-04-21 15:51 | 4.04181 | 91.86712 | 36000 ft | 463 kts | 285° |
| 2026-04-21 15:52 | 4.05757 | 91.80434 | 36000 ft | 463 kts | 285° |
| 2026-04-21 15:52 | 4.07320 | 91.74207 | 36000 ft | 463 kts | 285° |
| 2026-04-21 15:53 | 4.08888 | 91.67958 | 36000 ft | 463 kts | 285° |
| 2026-04-21 15:53 | 4.10453 | 91.61730 | 36001 ft | 463 kts | 285° |
| 2026-04-21 15:54 | 4.12047 | 91.55445 | 36000 ft | 463 kts | 285° |
| 2026-04-21 15:54 | 4.13614 | 91.49210 | 36000 ft | 463 kts | 285° |
| 2026-04-21 15:55 | 4.15182 | 91.42966 | 36000 ft | 463 kts | 285° |
| 2026-04-21 15:55 | 4.16750 | 91.36717 | 36000 ft | 463 kts | 285° |
| 2026-04-21 15:56 | 4.18314 | 91.30455 | 36000 ft | 463 kts | 284° |
| 2026-04-21 15:56 | 4.19880 | 91.24199 | 36000 ft | 463 kts | 284° |
| 2026-04-21 15:57 | 4.21443 | 91.17969 | 36000 ft | 463 kts | 285° |
| 2026-04-21 15:57 | 4.23006 | 91.11740 | 36000 ft | 463 kts | 285° |
| 2026-04-21 15:58 | 4.24579 | 91.05472 | 36000 ft | 463 kts | 285° |
| 2026-04-21 15:58 | 4.26152 | 90.99204 | 36000 ft | 463 kts | 285° |
| 2026-04-21 15:59 | 4.27721 | 90.92947 | 36000 ft | 463 kts | 285° |
| 2026-04-21 15:59 | 4.29291 | 90.86694 | 36000 ft | 463 kts | 285° |
| 2026-04-21 16:00 | 4.30853 | 90.80467 | 36000 ft | 463 kts | 285° |
| 2026-04-21 16:00 | 4.32430 | 90.74179 | 36000 ft | 463 kts | 285° |
| 2026-04-21 16:01 | 4.33999 | 90.67924 | 36000 ft | 463 kts | 285° |
| 2026-04-21 16:01 | 4.35563 | 90.61685 | 36000 ft | 463 kts | 285° |
| 2026-04-21 16:02 | 4.37131 | 90.55431 | 36000 ft | 463 kts | 285° |
| 2026-04-21 16:02 | 4.38696 | 90.49178 | 36000 ft | 463 kts | 285° |
| 2026-04-21 16:03 | 4.40250 | 90.42941 | 36000 ft | 463 kts | 284° |
| 2026-04-21 16:03 | 4.41927 | 90.36679 | 36000 ft | 463 kts | 287° |
| 2026-04-21 16:04 | 4.43661 | 90.30489 | 36001 ft | 463 kts | 286° |
| 2026-04-21 16:04 | 4.45392 | 90.24268 | 36000 ft | 463 kts | 286° |
| 2026-04-21 16:05 | 4.47121 | 90.18059 | 36000 ft | 463 kts | 286° |
| 2026-04-21 16:05 | 4.48853 | 90.11845 | 36000 ft | 463 kts | 286° |
| 2026-04-21 16:06 | 4.50586 | 90.05629 | 36000 ft | 463 kts | 286° |
| 2026-04-21 16:06 | 4.52320 | 89.99406 | 36000 ft | 463 kts | 286° |
| 2026-04-21 16:07 | 4.54054 | 89.93184 | 36000 ft | 463 kts | 286° |
| 2026-04-21 16:07 | 4.55782 | 89.86983 | 36000 ft | 463 kts | 286° |
| 2026-04-21 16:08 | 4.58376 | 89.77676 | 36000 ft | 463 kts | 286° |
| 2026-04-21 16:09 | 4.60109 | 89.71459 | 36000 ft | 463 kts | 286° |
| 2026-04-21 16:09 | 4.61842 | 89.65239 | 36000 ft | 463 kts | 286° |
| 2026-04-21 16:10 | 4.63579 | 89.59006 | 36000 ft | 463 kts | 286° |
| 2026-04-21 16:10 | 4.65310 | 89.52797 | 36000 ft | 463 kts | 286° |
| 2026-04-21 16:11 | 4.67031 | 89.46622 | 36000 ft | 463 kts | 286° |
| 2026-04-21 16:11 | 4.68759 | 89.40422 | 36000 ft | 463 kts | 286° |
| 2026-04-21 16:12 | 4.70499 | 89.34175 | 36000 ft | 463 kts | 286° |
| 2026-04-21 16:12 | 4.72217 | 89.27976 | 36000 ft | 463 kts | 286° |
| 2026-04-21 16:13 | 4.73943 | 89.21774 | 36000 ft | 463 kts | 286° |
| 2026-04-21 16:13 | 4.75675 | 89.15559 | 36000 ft | 463 kts | 286° |
| 2026-04-21 16:14 | 4.77406 | 89.09347 | 36000 ft | 463 kts | 286° |
| 2026-04-21 16:14 | 4.79146 | 89.03101 | 36000 ft | 463 kts | 286° |
| 2026-04-21 16:15 | 4.80869 | 88.96921 | 36000 ft | 463 kts | 286° |
| 2026-04-21 16:15 | 4.82603 | 88.90697 | 36000 ft | 463 kts | 286° |
| 2026-04-21 16:16 | 4.84338 | 88.84470 | 36000 ft | 463 kts | 286° |
| 2026-04-21 16:16 | 4.86059 | 88.78296 | 36000 ft | 463 kts | 286° |
| 2026-04-21 16:17 | 4.87800 | 88.72049 | 36000 ft | 463 kts | 286° |
| 2026-04-21 16:17 | 4.89521 | 88.65872 | 36000 ft | 463 kts | 286° |
| 2026-04-21 16:18 | 4.91254 | 88.59651 | 36000 ft | 463 kts | 286° |
| 2026-04-21 16:18 | 4.92979 | 88.53461 | 36000 ft | 463 kts | 286° |
| 2026-04-21 16:19 | 4.94712 | 88.47244 | 36000 ft | 463 kts | 286° |
| 2026-04-21 16:19 | 4.96448 | 88.41011 | 36000 ft | 463 kts | 286° |
| 2026-04-21 16:20 | 4.98179 | 88.34798 | 36000 ft | 463 kts | 286° |
| 2026-04-21 16:20 | 4.99909 | 88.28555 | 36000 ft | 463 kts | 286° |
| 2026-04-21 16:21 | 5.01633 | 88.22362 | 36000 ft | 463 kts | 286° |
| 2026-04-21 16:21 | 5.03363 | 88.16145 | 36000 ft | 463 kts | 286° |
| 2026-04-21 16:22 | 5.05095 | 88.09922 | 36000 ft | 463 kts | 286° |
| 2026-04-21 16:22 | 5.06820 | 88.03709 | 36000 ft | 463 kts | 286° |
| 2026-04-21 16:23 | 5.08513 | 87.97510 | 36000 ft | 463 kts | 285° |
| 2026-04-21 16:23 | 5.10161 | 87.91247 | 36000 ft | 463 kts | 285° |
| 2026-04-21 16:24 | 5.11816 | 87.84980 | 36000 ft | 463 kts | 285° |
| 2026-04-21 16:24 | 5.13439 | 87.78763 | 36000 ft | 463 kts | 285° |
| 2026-04-21 16:25 | 5.15072 | 87.72496 | 36000 ft | 463 kts | 285° |
| 2026-04-21 16:25 | 5.16695 | 87.66267 | 36000 ft | 463 kts | 285° |
| 2026-04-21 16:26 | 5.18321 | 87.60023 | 36000 ft | 463 kts | 285° |
| 2026-04-21 16:26 | 5.19950 | 87.53769 | 36000 ft | 463 kts | 285° |
| 2026-04-21 16:27 | 5.21569 | 87.47553 | 36000 ft | 463 kts | 285° |
| 2026-04-21 16:27 | 5.23195 | 87.41309 | 36000 ft | 463 kts | 285° |
| 2026-04-21 16:28 | 5.24821 | 87.35067 | 36001 ft | 463 kts | 285° |
| 2026-04-21 16:28 | 5.26428 | 87.28855 | 36000 ft | 463 kts | 285° |
| 2026-04-21 16:29 | 5.28050 | 87.22618 | 36000 ft | 463 kts | 285° |
| 2026-04-21 16:29 | 5.29680 | 87.16355 | 36000 ft | 463 kts | 285° |
| 2026-04-21 16:30 | 5.31309 | 87.10099 | 36000 ft | 463 kts | 285° |
| 2026-04-21 16:30 | 5.32940 | 87.03838 | 36000 ft | 463 kts | 285° |
| 2026-04-21 16:31 | 5.34565 | 86.97598 | 36000 ft | 463 kts | 285° |
| 2026-04-21 16:31 | 5.36190 | 86.91362 | 36000 ft | 463 kts | 285° |
| 2026-04-21 16:32 | 5.37808 | 86.85149 | 36000 ft | 463 kts | 285° |
| 2026-04-21 16:32 | 5.39439 | 86.78886 | 36000 ft | 463 kts | 285° |
| 2026-04-21 16:33 | 5.41059 | 86.72666 | 36000 ft | 463 kts | 285° |
| 2026-04-21 16:33 | 5.42691 | 86.66402 | 36000 ft | 463 kts | 285° |
| 2026-04-21 16:34 | 5.44313 | 86.60173 | 36000 ft | 463 kts | 285° |
| 2026-04-21 16:34 | 5.45945 | 86.53908 | 36000 ft | 463 kts | 285° |
| 2026-04-21 16:35 | 5.47576 | 86.47646 | 36000 ft | 463 kts | 285° |
| 2026-04-21 16:35 | 5.49200 | 86.41410 | 36000 ft | 463 kts | 285° |
| 2026-04-21 16:36 | 5.50832 | 86.35143 | 36000 ft | 463 kts | 285° |
| 2026-04-21 16:36 | 5.52441 | 86.28925 | 36000 ft | 463 kts | 285° |
| 2026-04-21 16:37 | 5.54067 | 86.22673 | 36000 ft | 463 kts | 285° |
| 2026-04-21 16:37 | 5.55698 | 86.16406 | 36000 ft | 463 kts | 285° |
| 2026-04-21 16:38 | 5.57314 | 86.10202 | 36000 ft | 463 kts | 285° |
| 2026-04-21 16:38 | 5.58940 | 86.03960 | 36000 ft | 463 kts | 285° |
| 2026-04-21 16:39 | 5.60572 | 85.97694 | 36000 ft | 463 kts | 285° |
| 2026-04-21 16:39 | 5.62189 | 85.91483 | 36000 ft | 463 kts | 285° |
| 2026-04-21 16:40 | 5.63814 | 85.85243 | 36000 ft | 463 kts | 285° |
| 2026-04-21 16:40 | 5.65444 | 85.78989 | 36000 ft | 463 kts | 285° |
| 2026-04-21 16:41 | 5.67071 | 85.72742 | 36000 ft | 463 kts | 285° |
| 2026-04-21 16:41 | 5.68698 | 85.66492 | 36000 ft | 463 kts | 285° |
| 2026-04-21 16:42 | 5.70321 | 85.60263 | 36000 ft | 463 kts | 285° |
| 2026-04-21 16:42 | 5.71942 | 85.54038 | 36000 ft | 463 kts | 285° |
| 2026-04-21 16:43 | 5.73570 | 85.47787 | 36000 ft | 463 kts | 285° |
| 2026-04-21 16:43 | 5.75208 | 85.41499 | 36000 ft | 463 kts | 285° |
| 2026-04-21 16:44 | 5.76832 | 85.35264 | 36000 ft | 463 kts | 285° |
| 2026-04-21 16:44 | 5.78445 | 85.29032 | 36000 ft | 463 kts | 285° |
| 2026-04-21 16:45 | 5.80074 | 85.22766 | 36000 ft | 463 kts | 285° |
| 2026-04-21 16:45 | 5.81703 | 85.16508 | 36000 ft | 463 kts | 285° |
| 2026-04-21 16:46 | 5.83325 | 85.10279 | 36000 ft | 463 kts | 285° |
| 2026-04-21 16:46 | 5.84949 | 85.04044 | 36000 ft | 463 kts | 285° |
| 2026-04-21 16:47 | 5.86584 | 84.97766 | 36000 ft | 463 kts | 285° |
| 2026-04-21 16:47 | 5.88202 | 84.91551 | 36000 ft | 463 kts | 285° |
| 2026-04-21 16:48 | 5.89833 | 84.85289 | 36000 ft | 463 kts | 285° |
| 2026-04-21 16:48 | 5.91453 | 84.79067 | 36000 ft | 463 kts | 285° |
| 2026-04-21 16:49 | 5.93087 | 84.72797 | 36000 ft | 463 kts | 285° |
| 2026-04-21 16:49 | 5.94710 | 84.66560 | 36000 ft | 463 kts | 285° |
| 2026-04-21 16:50 | 5.96331 | 84.60339 | 36000 ft | 463 kts | 285° |
| 2026-04-21 16:50 | 5.97964 | 84.54069 | 36000 ft | 463 kts | 285° |
| 2026-04-21 16:51 | 5.99586 | 84.47837 | 36000 ft | 463 kts | 285° |
| 2026-04-21 16:51 | 6.01212 | 84.41594 | 36000 ft | 463 kts | 285° |
| 2026-04-21 16:52 | 6.02842 | 84.35330 | 36000 ft | 463 kts | 285° |
| 2026-04-21 16:52 | 6.04453 | 84.29106 | 36000 ft | 463 kts | 285° |
| 2026-04-21 16:53 | 6.06079 | 84.22851 | 36000 ft | 463 kts | 285° |
| 2026-04-21 16:53 | 6.07703 | 84.16609 | 36000 ft | 463 kts | 285° |
| 2026-04-21 16:54 | 6.09327 | 84.10363 | 36000 ft | 463 kts | 285° |
| 2026-04-21 16:54 | 6.10953 | 84.04127 | 36000 ft | 463 kts | 285° |
| 2026-04-21 16:55 | 6.12584 | 83.97855 | 36000 ft | 463 kts | 285° |
| 2026-04-21 16:55 | 6.14194 | 83.91610 | 36000 ft | 463 kts | 285° |
| 2026-04-21 16:56 | 6.15785 | 83.85365 | 36000 ft | 463 kts | 285° |
| 2026-04-21 16:56 | 6.17372 | 83.79126 | 36000 ft | 463 kts | 285° |
| 2026-04-21 16:57 | 6.18966 | 83.72855 | 36000 ft | 463 kts | 285° |
| 2026-04-21 16:57 | 6.20549 | 83.66628 | 36000 ft | 463 kts | 285° |
| 2026-04-21 16:58 | 6.22141 | 83.60368 | 36000 ft | 463 kts | 285° |
| 2026-04-21 16:58 | 6.23729 | 83.54118 | 36000 ft | 463 kts | 285° |
| 2026-04-21 16:59 | 6.25312 | 83.47891 | 36000 ft | 463 kts | 285° |
| 2026-04-21 16:59 | 6.26907 | 83.41616 | 36000 ft | 463 kts | 285° |
| 2026-04-21 17:00 | 6.28488 | 83.35397 | 36000 ft | 463 kts | 285° |
| 2026-04-21 17:00 | 6.29813 | 83.30147 | 36000 ft | 463 kts | 285° |
| 2026-04-21 17:01 | 6.31659 | 83.22865 | 36000 ft | 463 kts | 285° |
| 2026-04-21 17:01 | 6.33248 | 83.16613 | 36000 ft | 463 kts | 285° |
| 2026-04-21 17:02 | 6.34840 | 83.10349 | 36000 ft | 463 kts | 285° |
| 2026-04-21 17:02 | 6.36434 | 83.04077 | 36000 ft | 463 kts | 285° |
| 2026-04-21 17:03 | 6.38016 | 82.97853 | 36000 ft | 463 kts | 285° |
| 2026-04-21 17:03 | 6.39605 | 82.91602 | 36000 ft | 463 kts | 285° |
| 2026-04-21 17:04 | 6.41202 | 82.85321 | 36000 ft | 462 kts | 285° |
| 2026-04-21 17:04 | 6.42788 | 82.79079 | 36000 ft | 462 kts | 285° |
| 2026-04-21 17:05 | 6.44375 | 82.72837 | 36000 ft | 462 kts | 285° |
| 2026-04-21 17:05 | 6.45966 | 82.66577 | 36000 ft | 462 kts | 285° |
| 2026-04-21 17:06 | 6.47558 | 82.60313 | 36000 ft | 462 kts | 285° |
| 2026-04-21 17:06 | 6.49145 | 82.54069 | 36000 ft | 462 kts | 285° |
| 2026-04-21 17:07 | 6.50737 | 82.47803 | 36000 ft | 462 kts | 285° |
| 2026-04-21 17:07 | 6.52319 | 82.41579 | 36000 ft | 462 kts | 285° |
| 2026-04-21 17:08 | 6.53913 | 82.35307 | 36000 ft | 462 kts | 285° |
| 2026-04-21 17:08 | 6.55493 | 82.29044 | 36000 ft | 462 kts | 285° |
| 2026-04-21 17:09 | 6.57868 | 82.19682 | 36000 ft | 462 kts | 285° |
| 2026-04-21 17:09 | 6.59466 | 82.13387 | 36000 ft | 462 kts | 285° |
| 2026-04-21 17:10 | 6.61046 | 82.07154 | 36000 ft | 462 kts | 285° |
| 2026-04-21 17:10 | 6.62624 | 82.00889 | 36000 ft | 462 kts | 285° |
| 2026-04-21 17:11 | 6.64224 | 81.94647 | 36000 ft | 462 kts | 285° |
| 2026-04-21 17:11 | 6.65806 | 81.88376 | 36000 ft | 462 kts | 285° |
| 2026-04-21 17:12 | 6.67384 | 81.82112 | 36000 ft | 462 kts | 285° |
| 2026-04-21 17:12 | 6.68959 | 81.75856 | 36000 ft | 462 kts | 285° |
| 2026-04-21 17:13 | 6.70525 | 81.69636 | 36000 ft | 462 kts | 285° |
| 2026-04-21 17:13 | 6.72104 | 81.63358 | 36000 ft | 462 kts | 285° |
| 2026-04-21 17:14 | 6.73677 | 81.57108 | 36000 ft | 462 kts | 285° |
| 2026-04-21 17:14 | 6.75256 | 81.50837 | 36000 ft | 462 kts | 285° |
| 2026-04-21 17:15 | 6.76827 | 81.44591 | 36000 ft | 462 kts | 285° |
| 2026-04-21 17:15 | 6.78407 | 81.38313 | 36000 ft | 462 kts | 285° |
| 2026-04-21 17:16 | 6.79976 | 81.32056 | 36000 ft | 462 kts | 284° |
| 2026-04-21 17:16 | 6.81539 | 81.25811 | 36000 ft | 462 kts | 285° |
| 2026-04-21 17:17 | 6.83115 | 81.19543 | 36000 ft | 462 kts | 285° |
| 2026-04-21 17:17 | 6.84682 | 81.13308 | 36000 ft | 462 kts | 285° |
| 2026-04-21 17:18 | 6.86260 | 81.07022 | 36000 ft | 462 kts | 285° |
| 2026-04-21 17:18 | 6.87820 | 81.00774 | 36000 ft | 462 kts | 285° |
| 2026-04-21 17:19 | 6.89401 | 80.94523 | 36000 ft | 462 kts | 285° |
| 2026-04-21 17:19 | 6.90967 | 80.88243 | 36000 ft | 462 kts | 285° |
| 2026-04-21 17:20 | 6.92522 | 80.81990 | 36000 ft | 462 kts | 285° |
| 2026-04-21 17:20 | 6.94085 | 80.75706 | 36000 ft | 462 kts | 285° |
| 2026-04-21 17:21 | 6.95639 | 80.69451 | 36000 ft | 462 kts | 285° |
| 2026-04-21 17:21 | 6.97202 | 80.63165 | 36000 ft | 462 kts | 285° |
| 2026-04-21 17:22 | 6.98756 | 80.56915 | 36000 ft | 462 kts | 285° |
| 2026-04-21 17:22 | 7.00311 | 80.50657 | 36000 ft | 462 kts | 285° |
| 2026-04-21 17:23 | 7.01870 | 80.44388 | 36000 ft | 462 kts | 285° |
| 2026-04-21 17:23 | 7.03425 | 80.38132 | 36000 ft | 462 kts | 285° |
| 2026-04-21 17:24 | 7.04983 | 80.31842 | 36000 ft | 462 kts | 284° |
| 2026-04-21 17:24 | 7.06533 | 80.25573 | 36000 ft | 462 kts | 284° |
| 2026-04-21 17:25 | 7.08086 | 80.19320 | 36000 ft | 462 kts | 284° |
| 2026-04-21 17:25 | 7.09645 | 80.13049 | 36000 ft | 462 kts | 284° |
| 2026-04-21 17:26 | 7.11212 | 80.06784 | 36000 ft | 462 kts | 285° |
| 2026-04-21 17:26 | 7.12775 | 80.00504 | 36000 ft | 462 kts | 284° |
| 2026-04-21 17:27 | 7.14322 | 79.94263 | 36000 ft | 462 kts | 284° |
| 2026-04-21 17:27 | 7.15870 | 79.87985 | 36001 ft | 462 kts | 286° |
| 2026-04-21 17:28 | 7.17003 | 79.84943 | 36014 ft | 461 kts | 297° |
| 2026-04-21 17:28 | 7.18454 | 79.82059 | 35996 ft | 463 kts | 297° |
| 2026-04-21 17:28 | 7.21216 | 79.76224 | 36002 ft | 462 kts | 296° |
| 2026-04-21 17:29 | 7.23969 | 79.70411 | 36000 ft | 462 kts | 296° |
| 2026-04-21 17:29 | 7.26721 | 79.64596 | 36001 ft | 462 kts | 296° |
| 2026-04-21 17:30 | 7.29490 | 79.58742 | 36000 ft | 462 kts | 296° |
| 2026-04-21 17:30 | 7.32247 | 79.52914 | 36000 ft | 462 kts | 296° |
| 2026-04-21 17:31 | 7.35010 | 79.47075 | 36000 ft | 462 kts | 296° |
| 2026-04-21 17:31 | 7.37775 | 79.41230 | 36000 ft | 462 kts | 296° |
| 2026-04-21 17:32 | 7.40530 | 79.35404 | 36000 ft | 462 kts | 296° |
| 2026-04-21 17:32 | 7.43271 | 79.29575 | 36000 ft | 462 kts | 296° |
| 2026-04-21 17:33 | 7.46030 | 79.23734 | 36000 ft | 462 kts | 296° |
| 2026-04-21 17:33 | 7.48801 | 79.17864 | 36000 ft | 462 kts | 296° |
| 2026-04-21 17:34 | 7.51533 | 79.12019 | 36000 ft | 462 kts | 295° |
| 2026-04-21 17:34 | 7.54106 | 79.06104 | 36000 ft | 462 kts | 294° |
| 2026-04-21 17:35 | 7.56664 | 79.00169 | 36000 ft | 462 kts | 294° |
| 2026-04-21 17:35 | 7.59207 | 78.94254 | 36000 ft | 462 kts | 294° |
| 2026-04-21 17:36 | 7.61749 | 78.88338 | 36000 ft | 462 kts | 294° |
| 2026-04-21 17:36 | 7.64304 | 78.82392 | 36000 ft | 462 kts | 294° |
| 2026-04-21 17:37 | 7.66846 | 78.76475 | 36000 ft | 462 kts | 294° |
| 2026-04-21 17:37 | 7.69395 | 78.70544 | 36000 ft | 462 kts | 294° |
| 2026-04-21 17:38 | 7.71947 | 78.64603 | 36000 ft | 462 kts | 294° |
| 2026-04-21 17:38 | 7.74511 | 78.58637 | 36000 ft | 462 kts | 294° |
| 2026-04-21 17:39 | 7.77060 | 78.52702 | 36000 ft | 462 kts | 294° |
| 2026-04-21 17:39 | 7.79607 | 78.46773 | 36000 ft | 462 kts | 294° |
| 2026-04-21 17:40 | 7.82151 | 78.40849 | 36000 ft | 462 kts | 294° |
| 2026-04-21 17:40 | 7.84701 | 78.34912 | 36000 ft | 462 kts | 294° |
| 2026-04-21 17:41 | 7.87246 | 78.28948 | 36000 ft | 462 kts | 294° |
| 2026-04-21 17:41 | 7.89787 | 78.23023 | 36000 ft | 462 kts | 294° |
| 2026-04-21 17:42 | 7.92312 | 78.17123 | 36000 ft | 462 kts | 294° |
| 2026-04-21 17:42 | 7.94933 | 78.11206 | 36000 ft | 462 kts | 295° |
| 2026-04-21 17:43 | 7.97545 | 78.05318 | 36000 ft | 462 kts | 295° |
| 2026-04-21 17:43 | 8.00167 | 77.99399 | 36000 ft | 462 kts | 295° |
| 2026-04-21 17:44 | 8.02781 | 77.93497 | 36000 ft | 462 kts | 295° |
| 2026-04-21 17:44 | 8.05392 | 77.87598 | 36000 ft | 462 kts | 295° |
| 2026-04-21 17:45 | 8.08006 | 77.81696 | 36000 ft | 462 kts | 295° |
| 2026-04-21 17:45 | 8.10617 | 77.75800 | 36000 ft | 462 kts | 295° |
| 2026-04-21 17:46 | 8.13255 | 77.69879 | 36000 ft | 462 kts | 295° |
| 2026-04-21 17:46 | 8.15875 | 77.63965 | 36000 ft | 462 kts | 295° |
| 2026-04-21 17:47 | 8.18482 | 77.58079 | 36000 ft | 462 kts | 295° |
| 2026-04-21 17:47 | 8.21111 | 77.52142 | 36000 ft | 462 kts | 295° |
| 2026-04-21 17:48 | 8.23721 | 77.46245 | 36000 ft | 462 kts | 295° |
| 2026-04-21 17:48 | 8.26324 | 77.40366 | 36000 ft | 462 kts | 295° |
| 2026-04-21 17:49 | 8.28947 | 77.34440 | 36000 ft | 462 kts | 295° |
| 2026-04-21 17:49 | 8.31553 | 77.28511 | 36000 ft | 462 kts | 295° |
| 2026-04-21 17:50 | 8.34162 | 77.22612 | 36000 ft | 462 kts | 295° |
| 2026-04-21 17:50 | 8.36762 | 77.16736 | 36000 ft | 462 kts | 295° |
| 2026-04-21 17:51 | 8.39380 | 77.10818 | 36000 ft | 462 kts | 295° |
| 2026-04-21 17:51 | 8.42001 | 77.04890 | 36000 ft | 462 kts | 295° |
| 2026-04-21 17:52 | 8.44595 | 76.99021 | 36000 ft | 462 kts | 295° |
| 2026-04-21 17:52 | 8.47201 | 76.93082 | 35999 ft | 462 kts | 293° |
| 2026-04-21 17:53 | 8.49338 | 76.86963 | 36000 ft | 462 kts | 289° |
| 2026-04-21 17:53 | 8.51375 | 76.80839 | 36001 ft | 461 kts | 289° |
| 2026-04-21 17:54 | 8.53392 | 76.74737 | 36000 ft | 462 kts | 289° |
| 2026-04-21 17:54 | 8.55432 | 76.68559 | 36000 ft | 461 kts | 289° |
| 2026-04-21 17:55 | 8.57460 | 76.62418 | 36000 ft | 461 kts | 289° |
| 2026-04-21 17:55 | 8.59481 | 76.56299 | 36000 ft | 461 kts | 289° |
| 2026-04-21 17:56 | 8.61507 | 76.50163 | 36000 ft | 461 kts | 289° |
| 2026-04-21 17:56 | 8.63537 | 76.44016 | 36000 ft | 461 kts | 289° |
| 2026-04-21 17:57 | 8.65564 | 76.37878 | 36000 ft | 461 kts | 289° |
| 2026-04-21 17:57 | 8.67584 | 76.31737 | 36000 ft | 461 kts | 289° |
| 2026-04-21 17:58 | 8.69599 | 76.25601 | 36000 ft | 461 kts | 289° |
| 2026-04-21 17:58 | 8.71621 | 76.19473 | 36000 ft | 461 kts | 289° |
| 2026-04-21 17:59 | 8.73652 | 76.13322 | 36000 ft | 461 kts | 289° |
| 2026-04-21 17:59 | 8.75686 | 76.07162 | 36000 ft | 461 kts | 289° |
| 2026-04-21 18:00 | 8.77702 | 76.01057 | 36000 ft | 461 kts | 289° |
| 2026-04-21 18:00 | 8.79733 | 75.94906 | 36000 ft | 461 kts | 289° |
| 2026-04-21 18:01 | 8.81761 | 75.88765 | 36000 ft | 461 kts | 289° |
| 2026-04-21 18:01 | 8.83791 | 75.82616 | 36000 ft | 461 kts | 289° |
| 2026-04-21 18:02 | 8.85818 | 75.76479 | 36000 ft | 461 kts | 289° |
| 2026-04-21 18:02 | 8.87855 | 75.70312 | 36000 ft | 461 kts | 289° |
| 2026-04-21 18:03 | 8.89881 | 75.64175 | 36000 ft | 461 kts | 289° |
| 2026-04-21 18:03 | 8.91903 | 75.58051 | 36000 ft | 461 kts | 289° |
| 2026-04-21 18:04 | 8.93927 | 75.51923 | 36000 ft | 461 kts | 289° |
| 2026-04-21 18:04 | 8.95961 | 75.45761 | 36000 ft | 461 kts | 289° |
| 2026-04-21 18:05 | 8.97994 | 75.39607 | 36000 ft | 461 kts | 289° |
| 2026-04-21 18:05 | 9.00008 | 75.33501 | 36000 ft | 461 kts | 289° |
| 2026-04-21 18:06 | 9.02028 | 75.27339 | 36000 ft | 461 kts | 289° |
| 2026-04-21 18:06 | 9.04058 | 75.21185 | 36000 ft | 461 kts | 289° |
| 2026-04-21 18:07 | 9.06084 | 75.15046 | 36000 ft | 461 kts | 289° |
| 2026-04-21 18:07 | 9.08104 | 75.08929 | 36000 ft | 461 kts | 289° |
| 2026-04-21 18:08 | 9.10137 | 75.02771 | 36000 ft | 461 kts | 289° |
| 2026-04-21 18:08 | 9.12178 | 74.96641 | 36000 ft | 461 kts | 289° |
| 2026-04-21 18:09 | 9.14212 | 74.90488 | 36000 ft | 461 kts | 289° |
| 2026-04-21 18:09 | 9.16237 | 74.84358 | 36000 ft | 461 kts | 289° |
| 2026-04-21 18:10 | 9.18259 | 74.78234 | 36000 ft | 461 kts | 289° |
| 2026-04-21 18:10 | 9.20299 | 74.72054 | 36000 ft | 461 kts | 289° |
| 2026-04-21 18:11 | 9.22325 | 74.65919 | 36000 ft | 461 kts | 289° |
| 2026-04-21 18:11 | 9.24350 | 74.59786 | 36000 ft | 461 kts | 289° |
| 2026-04-21 18:12 | 9.26379 | 74.53641 | 36000 ft | 461 kts | 289° |
| 2026-04-21 18:12 | 9.28407 | 74.47497 | 36000 ft | 461 kts | 289° |
| 2026-04-21 18:13 | 9.30442 | 74.41330 | 36000 ft | 461 kts | 289° |
| 2026-04-21 18:13 | 9.32470 | 74.35184 | 36000 ft | 461 kts | 289° |
| 2026-04-21 18:14 | 9.35498 | 74.25950 | 36000 ft | 461 kts | 289° |
| 2026-04-21 18:15 | 9.37512 | 74.19839 | 36000 ft | 461 kts | 289° |
| 2026-04-21 18:15 | 9.39545 | 74.13661 | 36000 ft | 461 kts | 289° |
| 2026-04-21 18:16 | 9.41578 | 74.07514 | 36000 ft | 461 kts | 289° |
| 2026-04-21 18:16 | 9.43622 | 74.01398 | 36000 ft | 461 kts | 289° |
| 2026-04-21 18:17 | 9.45661 | 73.95229 | 36000 ft | 461 kts | 289° |
| 2026-04-21 18:17 | 9.47684 | 73.89101 | 36000 ft | 461 kts | 289° |
| 2026-04-21 18:18 | 9.49716 | 73.82945 | 36000 ft | 461 kts | 289° |
| 2026-04-21 18:18 | 9.51745 | 73.76796 | 36000 ft | 461 kts | 289° |
| 2026-04-21 18:19 | 9.53766 | 73.70671 | 36000 ft | 461 kts | 289° |
| 2026-04-21 18:19 | 9.55796 | 73.64519 | 36000 ft | 461 kts | 289° |
| 2026-04-21 18:20 | 9.57828 | 73.58362 | 36000 ft | 461 kts | 289° |
| 2026-04-21 18:20 | 9.59854 | 73.52224 | 36000 ft | 461 kts | 289° |
| 2026-04-21 18:21 | 9.61890 | 73.46052 | 36000 ft | 461 kts | 289° |
| 2026-04-21 18:21 | 9.63915 | 73.39915 | 36000 ft | 461 kts | 289° |
| 2026-04-21 18:22 | 9.65949 | 73.33750 | 36000 ft | 461 kts | 289° |
| 2026-04-21 18:22 | 9.67969 | 73.27573 | 36000 ft | 461 kts | 289° |
| 2026-04-21 18:23 | 9.69996 | 73.21424 | 36000 ft | 461 kts | 289° |
| 2026-04-21 18:23 | 9.72022 | 73.15282 | 36000 ft | 461 kts | 289° |
| 2026-04-21 18:24 | 9.74053 | 73.09126 | 36000 ft | 461 kts | 289° |
| 2026-04-21 18:24 | 9.76090 | 73.02953 | 36000 ft | 461 kts | 289° |
| 2026-04-21 18:25 | 9.78114 | 72.96821 | 36000 ft | 461 kts | 289° |
| 2026-04-21 18:25 | 9.80141 | 72.90675 | 36000 ft | 461 kts | 289° |
| 2026-04-21 18:26 | 9.82171 | 72.84525 | 36000 ft | 461 kts | 289° |
| 2026-04-21 18:26 | 9.84212 | 72.78338 | 36000 ft | 461 kts | 289° |
| 2026-04-21 18:27 | 9.86240 | 72.72189 | 36000 ft | 461 kts | 289° |
| 2026-04-21 18:27 | 9.88265 | 72.66049 | 36000 ft | 461 kts | 289° |
| 2026-04-21 18:28 | 9.90297 | 72.59887 | 36000 ft | 461 kts | 289° |
| 2026-04-21 18:28 | 9.92326 | 72.53732 | 36000 ft | 461 kts | 289° |
| 2026-04-21 18:29 | 9.94363 | 72.47543 | 36000 ft | 461 kts | 289° |
| 2026-04-21 18:29 | 9.96377 | 72.41412 | 36001 ft | 461 kts | 291° |
| 2026-04-21 18:29 | 9.97785 | 72.38519 | 36019 ft | 460 kts | 304° |
| 2026-04-21 18:30 | 9.99625 | 72.35834 | 35991 ft | 462 kts | 305° |
| 2026-04-21 18:30 | 10.03144 | 72.30434 | 36003 ft | 461 kts | 304° |
| 2026-04-21 18:31 | 10.06673 | 72.25040 | 35999 ft | 461 kts | 304° |
| 2026-04-21 18:31 | 10.10227 | 72.19616 | 36001 ft | 461 kts | 304° |
| 2026-04-21 18:32 | 10.13779 | 72.14223 | 36000 ft | 461 kts | 304° |
| 2026-04-21 18:32 | 10.17324 | 72.08823 | 36000 ft | 461 kts | 304° |
| 2026-04-21 18:33 | 10.20875 | 72.03408 | 36000 ft | 461 kts | 304° |
| 2026-04-21 18:33 | 10.24420 | 71.98001 | 36000 ft | 461 kts | 304° |
| 2026-04-21 18:34 | 10.27957 | 71.92606 | 36000 ft | 461 kts | 304° |
| 2026-04-21 18:34 | 10.31503 | 71.87199 | 36000 ft | 461 kts | 304° |
| 2026-04-21 18:35 | 10.34467 | 71.82678 | 36000 ft | 461 kts | 304° |
| 2026-04-21 18:35 | 10.38592 | 71.76386 | 36000 ft | 461 kts | 304° |
| 2026-04-21 18:36 | 10.42141 | 71.70974 | 36000 ft | 461 kts | 304° |
| 2026-04-21 18:36 | 10.45679 | 71.65577 | 36000 ft | 461 kts | 304° |
| 2026-04-21 18:37 | 10.49208 | 71.60194 | 36000 ft | 461 kts | 304° |
| 2026-04-21 18:37 | 10.52780 | 71.54747 | 36000 ft | 461 kts | 304° |
| 2026-04-21 18:38 | 10.56315 | 71.49356 | 36000 ft | 461 kts | 304° |
| 2026-04-21 18:38 | 10.59861 | 71.43948 | 36000 ft | 461 kts | 304° |
| 2026-04-21 18:39 | 10.63404 | 71.38543 | 36000 ft | 461 kts | 304° |
| 2026-04-21 18:39 | 10.66944 | 71.33136 | 36000 ft | 461 kts | 304° |
| 2026-04-21 18:40 | 10.70471 | 71.27721 | 36000 ft | 461 kts | 304° |
| 2026-04-21 18:40 | 10.73426 | 71.23209 | 36000 ft | 461 kts | 304° |
| 2026-04-21 18:41 | 10.77586 | 71.16863 | 36000 ft | 461 kts | 304° |
| 2026-04-21 18:41 | 10.81115 | 71.11479 | 36000 ft | 461 kts | 304° |
| 2026-04-21 18:42 | 10.84671 | 71.06058 | 36000 ft | 461 kts | 304° |
| 2026-04-21 18:42 | 10.88227 | 71.00633 | 36000 ft | 461 kts | 304° |
| 2026-04-21 18:43 | 10.91776 | 70.95219 | 36000 ft | 461 kts | 304° |
| 2026-04-21 18:43 | 10.95319 | 70.89816 | 36000 ft | 461 kts | 304° |
| 2026-04-21 18:44 | 10.98851 | 70.84428 | 36000 ft | 461 kts | 304° |
| 2026-04-21 18:44 | 11.02420 | 70.78985 | 36000 ft | 461 kts | 304° |
| 2026-04-21 18:45 | 11.05969 | 70.73572 | 36000 ft | 461 kts | 304° |
| 2026-04-21 18:45 | 11.09504 | 70.68180 | 36000 ft | 461 kts | 304° |
| 2026-04-21 18:46 | 11.13070 | 70.62762 | 36000 ft | 461 kts | 304° |
| 2026-04-21 18:46 | 11.16624 | 70.57350 | 36000 ft | 461 kts | 304° |
| 2026-04-21 18:47 | 11.20153 | 70.51967 | 36000 ft | 461 kts | 304° |
| 2026-04-21 18:47 | 11.23706 | 70.46547 | 36000 ft | 461 kts | 304° |
| 2026-04-21 18:48 | 11.27256 | 70.41134 | 36000 ft | 460 kts | 304° |
| 2026-04-21 18:48 | 11.30816 | 70.35702 | 36000 ft | 460 kts | 304° |
| 2026-04-21 18:49 | 11.34341 | 70.30291 | 36000 ft | 460 kts | 304° |
| 2026-04-21 18:49 | 11.37293 | 70.25776 | 36000 ft | 460 kts | 304° |
| 2026-04-21 18:50 | 11.41444 | 70.19441 | 36000 ft | 460 kts | 304° |
| 2026-04-21 18:50 | 11.44988 | 70.14034 | 36000 ft | 460 kts | 304° |
| 2026-04-21 18:51 | 11.48543 | 70.08611 | 36000 ft | 460 kts | 304° |
| 2026-04-21 18:51 | 11.52094 | 70.03191 | 36000 ft | 460 kts | 304° |
| 2026-04-21 18:52 | 11.55621 | 69.97805 | 36000 ft | 460 kts | 304° |
| 2026-04-21 18:52 | 11.59175 | 69.92372 | 36000 ft | 460 kts | 304° |
| 2026-04-21 18:53 | 11.62718 | 69.86933 | 36000 ft | 460 kts | 304° |
| 2026-04-21 18:53 | 11.66211 | 69.81521 | 36000 ft | 460 kts | 304° |
| 2026-04-21 18:54 | 11.69723 | 69.76043 | 36000 ft | 460 kts | 304° |
| 2026-04-21 18:54 | 11.73209 | 69.70599 | 36000 ft | 460 kts | 304° |
| 2026-04-21 18:55 | 11.76128 | 69.66039 | 36000 ft | 460 kts | 304° |
| 2026-04-21 18:55 | 11.80197 | 69.59682 | 36000 ft | 460 kts | 304° |
| 2026-04-21 18:56 | 11.83694 | 69.54219 | 36000 ft | 460 kts | 304° |
| 2026-04-21 18:56 | 11.87201 | 69.48740 | 36000 ft | 460 kts | 304° |
| 2026-04-21 18:57 | 11.90686 | 69.43296 | 36000 ft | 460 kts | 304° |
| 2026-04-21 18:57 | 11.94174 | 69.37847 | 36000 ft | 460 kts | 304° |
| 2026-04-21 18:58 | 11.97657 | 69.32391 | 36000 ft | 460 kts | 303° |
| 2026-04-21 18:58 | 12.01148 | 69.26906 | 36000 ft | 460 kts | 304° |
| 2026-04-21 18:59 | 12.04632 | 69.21459 | 36000 ft | 460 kts | 304° |
| 2026-04-21 18:59 | 12.08139 | 69.15979 | 36000 ft | 460 kts | 304° |
| 2026-04-21 19:00 | 12.11631 | 69.10528 | 36000 ft | 460 kts | 304° |
| 2026-04-21 19:00 | 12.15124 | 69.05075 | 36000 ft | 460 kts | 304° |
| 2026-04-21 19:01 | 12.18617 | 68.99596 | 36001 ft | 460 kts | 304° |
| 2026-04-21 19:01 | 12.22130 | 68.94148 | 36000 ft | 460 kts | 304° |
| 2026-04-21 19:02 | 12.25614 | 68.88686 | 36000 ft | 460 kts | 304° |
| 2026-04-21 19:02 | 12.29093 | 68.83228 | 36000 ft | 460 kts | 304° |
| 2026-04-21 19:03 | 12.32571 | 68.77769 | 36000 ft | 460 kts | 304° |
| 2026-04-21 19:03 | 12.36057 | 68.72296 | 36000 ft | 460 kts | 304° |
| 2026-04-21 19:04 | 12.39564 | 68.66791 | 36000 ft | 460 kts | 304° |
| 2026-04-21 19:04 | 12.43038 | 68.61337 | 36000 ft | 460 kts | 304° |
| 2026-04-21 19:05 | 12.46529 | 68.55857 | 36000 ft | 460 kts | 304° |
| 2026-04-21 19:05 | 12.50010 | 68.50392 | 36000 ft | 460 kts | 304° |
| 2026-04-21 19:06 | 12.53500 | 68.44913 | 36000 ft | 460 kts | 304° |
| 2026-04-21 19:06 | 12.56998 | 68.39420 | 36000 ft | 460 kts | 304° |
| 2026-04-21 19:07 | 12.60484 | 68.33945 | 36000 ft | 460 kts | 303° |
| 2026-04-21 19:07 | 12.63946 | 68.28466 | 36000 ft | 460 kts | 303° |
| 2026-04-21 19:08 | 12.67422 | 68.23004 | 36000 ft | 460 kts | 304° |
| 2026-04-21 19:08 | 12.70925 | 68.17502 | 36000 ft | 460 kts | 304° |
| 2026-04-21 19:09 | 12.74417 | 68.12015 | 36000 ft | 460 kts | 304° |
| 2026-04-21 19:09 | 12.77902 | 68.06537 | 36000 ft | 460 kts | 303° |
| 2026-04-21 19:10 | 12.81384 | 68.01060 | 36001 ft | 460 kts | 304° |
| 2026-04-21 19:10 | 12.84887 | 67.95586 | 36000 ft | 460 kts | 303° |
| 2026-04-21 19:11 | 12.88357 | 67.90090 | 36000 ft | 460 kts | 303° |
| 2026-04-21 19:11 | 12.91665 | 67.84843 | 36000 ft | 460 kts | 303° |
| 2026-04-21 19:12 | 12.95254 | 67.79147 | 36000 ft | 460 kts | 303° |
| 2026-04-21 19:12 | 12.98733 | 67.73625 | 36000 ft | 460 kts | 303° |
| 2026-04-21 19:13 | 13.02197 | 67.68127 | 36000 ft | 460 kts | 303° |
| 2026-04-21 19:13 | 13.05645 | 67.62655 | 36000 ft | 460 kts | 303° |
| 2026-04-21 19:14 | 13.09122 | 67.57136 | 36000 ft | 460 kts | 303° |
| 2026-04-21 19:14 | 13.12603 | 67.51631 | 36000 ft | 460 kts | 304° |
| 2026-04-21 19:15 | 13.16069 | 67.46143 | 36000 ft | 460 kts | 303° |
| 2026-04-21 19:15 | 13.19521 | 67.40668 | 36000 ft | 460 kts | 303° |
| 2026-04-21 19:16 | 13.22992 | 67.35158 | 36000 ft | 460 kts | 303° |
| 2026-04-21 19:16 | 13.26442 | 67.29637 | 36000 ft | 460 kts | 303° |
| 2026-04-21 19:17 | 13.31650 | 67.21358 | 36000 ft | 460 kts | 303° |
| 2026-04-21 19:17 | 13.35116 | 67.15855 | 36000 ft | 460 kts | 303° |
| 2026-04-21 19:18 | 13.38568 | 67.10375 | 36000 ft | 460 kts | 303° |
| 2026-04-21 19:18 | 13.42036 | 67.04871 | 36000 ft | 460 kts | 303° |
| 2026-04-21 19:19 | 13.45524 | 66.99335 | 36000 ft | 460 kts | 303° |
| 2026-04-21 19:19 | 13.48985 | 66.93842 | 36000 ft | 460 kts | 303° |
| 2026-04-21 19:20 | 13.52453 | 66.88337 | 36000 ft | 460 kts | 303° |
| 2026-04-21 19:20 | 13.55938 | 66.82807 | 36000 ft | 460 kts | 303° |
| 2026-04-21 19:21 | 13.59409 | 66.77298 | 36000 ft | 460 kts | 303° |
| 2026-04-21 19:21 | 13.62877 | 66.71793 | 36000 ft | 460 kts | 303° |
| 2026-04-21 19:22 | 13.66364 | 66.66258 | 36000 ft | 460 kts | 303° |
| 2026-04-21 19:22 | 13.69825 | 66.60765 | 36000 ft | 460 kts | 303° |
| 2026-04-21 19:23 | 13.73315 | 66.55227 | 36000 ft | 460 kts | 303° |
| 2026-04-21 19:23 | 13.76767 | 66.49745 | 36000 ft | 460 kts | 304° |
| 2026-04-21 19:24 | 13.80247 | 66.44223 | 36000 ft | 460 kts | 304° |
| 2026-04-21 19:24 | 13.83731 | 66.38694 | 36000 ft | 460 kts | 304° |
| 2026-04-21 19:25 | 13.87195 | 66.33186 | 36000 ft | 460 kts | 303° |
| 2026-04-21 19:25 | 13.90660 | 66.27644 | 36000 ft | 460 kts | 303° |
| 2026-04-21 19:26 | 13.94115 | 66.22154 | 36000 ft | 460 kts | 303° |
| 2026-04-21 19:26 | 13.97599 | 66.16625 | 36000 ft | 460 kts | 303° |
| 2026-04-21 19:27 | 14.01054 | 66.11138 | 36000 ft | 460 kts | 303° |
| 2026-04-21 19:27 | 14.04542 | 66.05603 | 36000 ft | 460 kts | 303° |
| 2026-04-21 19:28 | 14.08012 | 66.00095 | 36000 ft | 460 kts | 303° |
| 2026-04-21 19:28 | 14.11479 | 65.94599 | 36000 ft | 460 kts | 304° |
| 2026-04-21 19:29 | 14.14962 | 65.89092 | 36000 ft | 460 kts | 303° |
| 2026-04-21 19:29 | 14.18459 | 65.83543 | 36000 ft | 460 kts | 303° |
| 2026-04-21 19:30 | 14.21926 | 65.78040 | 36000 ft | 460 kts | 303° |
| 2026-04-21 19:30 | 14.25389 | 65.72545 | 36000 ft | 460 kts | 304° |
| 2026-04-21 19:31 | 14.28868 | 65.67021 | 36000 ft | 460 kts | 304° |
| 2026-04-21 19:31 | 14.32339 | 65.61511 | 36000 ft | 460 kts | 304° |
| 2026-04-21 19:32 | 14.35806 | 65.56006 | 36000 ft | 460 kts | 304° |
| 2026-04-21 19:32 | 14.39295 | 65.50467 | 36000 ft | 460 kts | 304° |
| 2026-04-21 19:33 | 14.42763 | 65.44961 | 36000 ft | 460 kts | 304° |
| 2026-04-21 19:33 | 14.46240 | 65.39439 | 36000 ft | 460 kts | 304° |
| 2026-04-21 19:34 | 14.49725 | 65.33898 | 36000 ft | 460 kts | 303° |
| 2026-04-21 19:34 | 14.53182 | 65.28360 | 36000 ft | 460 kts | 303° |
| 2026-04-21 19:35 | 14.58365 | 65.20064 | 35996 ft | 460 kts | 300° |
| 2026-04-21 19:35 | 14.59655 | 65.17062 | 36010 ft | 459 kts | 289° |
| 2026-04-21 19:36 | 14.60641 | 65.13906 | 36000 ft | 460 kts | 289° |
| 2026-04-21 19:36 | 14.62651 | 65.07640 | 36001 ft | 459 kts | 289° |
| 2026-04-21 19:37 | 14.64632 | 65.01406 | 36000 ft | 460 kts | 289° |
| 2026-04-21 19:37 | 14.66622 | 64.95136 | 36000 ft | 460 kts | 289° |
| 2026-04-21 19:38 | 14.68613 | 64.88863 | 36000 ft | 460 kts | 289° |
| 2026-04-21 19:38 | 14.70601 | 64.82597 | 36000 ft | 460 kts | 289° |
| 2026-04-21 19:39 | 14.72590 | 64.76327 | 36000 ft | 460 kts | 289° |
| 2026-04-21 19:39 | 14.74571 | 64.70083 | 36000 ft | 460 kts | 289° |
| 2026-04-21 19:40 | 14.76556 | 64.63829 | 36000 ft | 460 kts | 289° |
| 2026-04-21 19:40 | 14.78548 | 64.57549 | 36000 ft | 460 kts | 289° |
| 2026-04-21 19:41 | 14.80539 | 64.51273 | 36000 ft | 460 kts | 289° |
| 2026-04-21 19:41 | 14.82522 | 64.45023 | 36000 ft | 460 kts | 289° |
| 2026-04-21 19:42 | 14.84517 | 64.38738 | 36000 ft | 460 kts | 289° |
| 2026-04-21 19:42 | 14.86497 | 64.32477 | 36000 ft | 460 kts | 288° |
| 2026-04-21 19:43 | 14.88471 | 64.26189 | 36000 ft | 459 kts | 289° |
| 2026-04-21 19:43 | 14.90458 | 64.19918 | 36000 ft | 459 kts | 289° |
| 2026-04-21 19:44 | 14.92446 | 64.13649 | 36000 ft | 459 kts | 289° |
| 2026-04-21 19:44 | 14.94427 | 64.07405 | 36000 ft | 459 kts | 289° |
| 2026-04-21 19:45 | 14.96411 | 64.01154 | 36000 ft | 459 kts | 289° |
| 2026-04-21 19:45 | 14.98407 | 63.94861 | 36000 ft | 459 kts | 289° |
| 2026-04-21 19:46 | 15.00392 | 63.88603 | 36000 ft | 459 kts | 289° |
| 2026-04-21 19:46 | 15.02384 | 63.82326 | 36000 ft | 459 kts | 289° |
| 2026-04-21 19:47 | 15.04382 | 63.76030 | 36000 ft | 459 kts | 289° |
| 2026-04-21 19:47 | 15.06370 | 63.69763 | 36000 ft | 459 kts | 289° |
| 2026-04-21 19:48 | 15.08366 | 63.63473 | 36000 ft | 459 kts | 289° |
| 2026-04-21 19:48 | 15.10352 | 63.57214 | 36000 ft | 459 kts | 289° |
| 2026-04-21 19:49 | 15.12360 | 63.50947 | 36000 ft | 459 kts | 289° |
| 2026-04-21 19:49 | 15.14352 | 63.44679 | 36000 ft | 459 kts | 289° |
| 2026-04-21 19:50 | 15.16001 | 63.39482 | 36000 ft | 459 kts | 289° |
| 2026-04-21 19:50 | 15.18325 | 63.32132 | 36000 ft | 459 kts | 288° |
| 2026-04-21 19:51 | 15.20298 | 63.25851 | 36000 ft | 459 kts | 289° |
| 2026-04-21 19:51 | 15.22280 | 63.19593 | 36000 ft | 459 kts | 289° |
| 2026-04-21 19:52 | 15.24266 | 63.13333 | 36000 ft | 459 kts | 289° |
| 2026-04-21 19:52 | 15.26255 | 63.07063 | 36000 ft | 459 kts | 289° |
| 2026-04-21 19:53 | 15.28254 | 63.00763 | 36001 ft | 459 kts | 289° |
| 2026-04-21 19:53 | 15.30241 | 62.94501 | 36000 ft | 459 kts | 289° |
| 2026-04-21 19:54 | 15.32234 | 62.88220 | 36000 ft | 459 kts | 289° |
| 2026-04-21 19:54 | 15.34225 | 62.81942 | 36000 ft | 459 kts | 289° |
| 2026-04-21 19:55 | 15.36222 | 62.75649 | 36000 ft | 459 kts | 289° |
| 2026-04-21 19:55 | 15.38206 | 62.69398 | 36000 ft | 459 kts | 289° |
| 2026-04-21 19:56 | 15.40210 | 62.63081 | 36000 ft | 459 kts | 289° |
| 2026-04-21 19:56 | 15.42197 | 62.56817 | 36000 ft | 459 kts | 289° |
| 2026-04-21 19:57 | 15.44191 | 62.50535 | 36000 ft | 459 kts | 289° |
| 2026-04-21 19:57 | 15.46182 | 62.44258 | 36000 ft | 459 kts | 289° |
| 2026-04-21 19:58 | 15.48181 | 62.37957 | 36000 ft | 459 kts | 289° |
| 2026-04-21 19:58 | 15.50153 | 62.31708 | 36000 ft | 459 kts | 288° |
| 2026-04-21 19:59 | 15.52130 | 62.25423 | 36000 ft | 459 kts | 289° |
| 2026-04-21 19:59 | 15.54126 | 62.19123 | 36000 ft | 459 kts | 289° |
| 2026-04-21 20:00 | 15.56109 | 62.12871 | 36000 ft | 459 kts | 289° |
| 2026-04-21 20:00 | 15.58107 | 62.06573 | 36000 ft | 459 kts | 289° |
| 2026-04-21 20:01 | 15.60096 | 62.00306 | 36000 ft | 459 kts | 289° |
| 2026-04-21 20:01 | 15.62090 | 61.94022 | 36000 ft | 459 kts | 289° |
| 2026-04-21 20:02 | 15.64089 | 61.87721 | 36000 ft | 459 kts | 289° |
| 2026-04-21 20:02 | 15.66077 | 61.81456 | 36000 ft | 459 kts | 289° |
| 2026-04-21 20:03 | 15.68063 | 61.75196 | 36000 ft | 459 kts | 289° |
| 2026-04-21 20:03 | 15.70064 | 61.68889 | 36000 ft | 459 kts | 289° |
| 2026-04-21 20:04 | 15.72052 | 61.62622 | 36000 ft | 459 kts | 289° |
| 2026-04-21 20:04 | 15.74063 | 61.56285 | 36000 ft | 459 kts | 289° |
| 2026-04-21 20:05 | 15.76052 | 61.50013 | 36000 ft | 459 kts | 289° |
| 2026-04-21 20:05 | 15.78050 | 61.43718 | 36000 ft | 459 kts | 289° |
| 2026-04-21 20:06 | 15.80048 | 61.37420 | 36000 ft | 459 kts | 289° |
| 2026-04-21 20:06 | 15.82028 | 61.31137 | 36000 ft | 459 kts | 288° |
| 2026-04-21 20:07 | 15.84008 | 61.24849 | 36000 ft | 459 kts | 289° |
| 2026-04-21 20:07 | 15.86000 | 61.18563 | 36000 ft | 459 kts | 289° |
| 2026-04-21 20:08 | 15.88002 | 61.12254 | 36000 ft | 459 kts | 289° |
| 2026-04-21 20:08 | 15.89993 | 61.05976 | 36000 ft | 459 kts | 289° |
| 2026-04-21 20:09 | 15.91988 | 60.99690 | 36000 ft | 459 kts | 289° |
| 2026-04-21 20:09 | 15.93988 | 60.93385 | 36000 ft | 459 kts | 289° |
| 2026-04-21 20:10 | 15.95977 | 60.87114 | 36000 ft | 459 kts | 289° |
| 2026-04-21 20:10 | 15.97970 | 60.80834 | 36000 ft | 459 kts | 289° |
| 2026-04-21 20:11 | 15.99965 | 60.74543 | 36000 ft | 459 kts | 289° |
| 2026-04-21 20:11 | 16.01969 | 60.68228 | 36000 ft | 459 kts | 289° |
| 2026-04-21 20:12 | 16.03956 | 60.61962 | 36000 ft | 459 kts | 289° |
| 2026-04-21 20:12 | 16.05953 | 60.55668 | 36000 ft | 459 kts | 289° |
| 2026-04-21 20:13 | 16.07957 | 60.49348 | 36000 ft | 459 kts | 289° |
| 2026-04-21 20:13 | 16.09940 | 60.43097 | 36000 ft | 459 kts | 289° |
| 2026-04-21 20:14 | 16.11958 | 60.36785 | 36000 ft | 459 kts | 289° |
| 2026-04-21 20:14 | 16.13945 | 60.30470 | 36001 ft | 459 kts | 288° |
| 2026-04-21 20:15 | 16.15929 | 60.24184 | 36000 ft | 459 kts | 289° |
| 2026-04-21 20:15 | 16.17924 | 60.17884 | 36000 ft | 459 kts | 289° |
| 2026-04-21 20:16 | 16.19918 | 60.11588 | 36000 ft | 459 kts | 289° |
| 2026-04-21 20:16 | 16.21905 | 60.05303 | 36000 ft | 459 kts | 289° |
| 2026-04-21 20:17 | 16.23760 | 59.98946 | 35999 ft | 459 kts | 281° |
| 2026-04-21 20:17 | 16.24732 | 59.92397 | 36002 ft | 459 kts | 279° |
| 2026-04-21 20:18 | 16.25546 | 59.86966 | 36000 ft | 459 kts | 279° |
| 2026-04-21 20:18 | 16.26683 | 59.79286 | 36001 ft | 459 kts | 279° |
| 2026-04-21 20:19 | 16.27655 | 59.72726 | 36000 ft | 459 kts | 279° |
| 2026-04-21 20:19 | 16.28626 | 59.66165 | 36000 ft | 459 kts | 279° |
| 2026-04-21 20:20 | 16.29596 | 59.59614 | 36000 ft | 459 kts | 279° |
| 2026-04-21 20:20 | 16.30570 | 59.53035 | 36000 ft | 459 kts | 279° |
| 2026-04-21 20:21 | 16.31536 | 59.46513 | 36000 ft | 459 kts | 279° |
| 2026-04-21 20:21 | 16.32511 | 59.39926 | 36000 ft | 459 kts | 279° |
| 2026-04-21 20:22 | 16.33478 | 59.33386 | 36000 ft | 459 kts | 279° |
| 2026-04-21 20:22 | 16.34911 | 59.23535 | 36000 ft | 459 kts | 279° |
| 2026-04-21 20:23 | 16.35879 | 59.16992 | 36000 ft | 459 kts | 279° |
| 2026-04-21 20:23 | 16.36845 | 59.10461 | 36000 ft | 459 kts | 279° |
| 2026-04-21 20:24 | 16.37820 | 59.03877 | 36000 ft | 459 kts | 279° |
| 2026-04-21 20:24 | 16.38788 | 58.97342 | 36001 ft | 459 kts | 279° |
| 2026-04-21 20:25 | 16.39760 | 58.90773 | 36000 ft | 459 kts | 279° |
| 2026-04-21 20:25 | 16.40726 | 58.84248 | 36000 ft | 459 kts | 279° |
| 2026-04-21 20:26 | 16.41700 | 58.77673 | 36000 ft | 459 kts | 279° |
| 2026-04-21 20:26 | 16.42667 | 58.71140 | 36000 ft | 459 kts | 279° |
| 2026-04-21 20:27 | 16.43642 | 58.64552 | 36000 ft | 459 kts | 279° |
| 2026-04-21 20:27 | 16.44610 | 58.58019 | 36000 ft | 459 kts | 279° |
| 2026-04-21 20:28 | 16.45578 | 58.51476 | 36000 ft | 459 kts | 279° |
| 2026-04-21 20:28 | 16.46551 | 58.44909 | 36000 ft | 459 kts | 279° |
| 2026-04-21 20:29 | 16.47522 | 58.38344 | 36000 ft | 459 kts | 279° |
| 2026-04-21 20:29 | 16.48488 | 58.31760 | 36000 ft | 459 kts | 279° |
| 2026-04-21 20:30 | 16.49445 | 58.25186 | 36000 ft | 459 kts | 279° |
| 2026-04-21 20:30 | 16.50409 | 58.18658 | 36000 ft | 459 kts | 279° |
| 2026-04-21 20:31 | 16.51379 | 58.12106 | 36000 ft | 459 kts | 279° |
| 2026-04-21 20:31 | 16.52349 | 58.05553 | 36000 ft | 459 kts | 279° |
| 2026-04-21 20:32 | 16.53322 | 57.98979 | 36000 ft | 459 kts | 279° |
| 2026-04-21 20:32 | 16.54296 | 57.92398 | 36000 ft | 459 kts | 279° |
| 2026-04-21 20:33 | 16.55263 | 57.85867 | 36000 ft | 459 kts | 279° |
| 2026-04-21 20:33 | 16.56233 | 57.79315 | 36000 ft | 459 kts | 279° |
| 2026-04-21 20:34 | 16.57206 | 57.72741 | 36000 ft | 459 kts | 279° |
| 2026-04-21 20:34 | 16.58173 | 57.66204 | 36000 ft | 459 kts | 279° |
| 2026-04-21 20:35 | 16.59146 | 57.59631 | 36000 ft | 459 kts | 279° |
| 2026-04-21 20:35 | 16.60121 | 57.53045 | 36000 ft | 459 kts | 279° |
| 2026-04-21 20:36 | 16.61085 | 57.46524 | 36000 ft | 459 kts | 279° |
| 2026-04-21 20:36 | 16.62055 | 57.39968 | 36000 ft | 459 kts | 279° |
| 2026-04-21 20:37 | 16.63022 | 57.33406 | 36000 ft | 459 kts | 279° |
| 2026-04-21 20:37 | 16.63973 | 57.26839 | 36000 ft | 459 kts | 279° |
| 2026-04-21 20:38 | 16.64941 | 57.20267 | 36000 ft | 459 kts | 279° |
| 2026-04-21 20:38 | 16.65908 | 57.13699 | 36000 ft | 459 kts | 279° |
| 2026-04-21 20:39 | 16.66875 | 57.07127 | 36001 ft | 458 kts | 280° |
| 2026-04-21 20:39 | 16.67876 | 57.00599 | 36000 ft | 458 kts | 279° |
| 2026-04-21 20:40 | 16.68854 | 56.94027 | 36000 ft | 458 kts | 279° |
| 2026-04-21 20:40 | 16.69826 | 56.87468 | 36000 ft | 458 kts | 279° |
| 2026-04-21 20:41 | 16.70801 | 56.80895 | 36000 ft | 458 kts | 279° |
| 2026-04-21 20:41 | 16.71777 | 56.74308 | 36000 ft | 458 kts | 279° |
| 2026-04-21 20:42 | 16.72745 | 56.67775 | 36000 ft | 458 kts | 279° |
| 2026-04-21 20:42 | 16.73721 | 56.61185 | 36000 ft | 458 kts | 279° |
| 2026-04-21 20:43 | 16.74692 | 56.54630 | 36000 ft | 458 kts | 279° |
| 2026-04-21 20:43 | 16.75664 | 56.48069 | 36000 ft | 458 kts | 279° |
| 2026-04-21 20:44 | 16.76640 | 56.41480 | 36000 ft | 458 kts | 279° |
| 2026-04-21 20:44 | 16.77607 | 56.34949 | 36000 ft | 458 kts | 279° |
| 2026-04-21 20:45 | 16.78563 | 56.28350 | 36000 ft | 458 kts | 279° |
| 2026-04-21 20:45 | 16.79532 | 56.21778 | 36000 ft | 458 kts | 279° |
| 2026-04-21 20:46 | 16.80500 | 56.15241 | 36000 ft | 458 kts | 279° |
| 2026-04-21 20:46 | 16.81471 | 56.08680 | 36000 ft | 458 kts | 279° |
| 2026-04-21 20:47 | 16.82443 | 56.02118 | 36000 ft | 458 kts | 279° |
| 2026-04-21 20:47 | 16.83416 | 55.95547 | 36000 ft | 458 kts | 279° |
| 2026-04-21 20:48 | 16.84387 | 55.88981 | 36000 ft | 458 kts | 279° |
| 2026-04-21 20:48 | 16.85360 | 55.82405 | 36000 ft | 458 kts | 279° |
| 2026-04-21 20:49 | 16.86323 | 55.75887 | 36000 ft | 458 kts | 279° |
| 2026-04-21 20:49 | 16.87296 | 55.69289 | 36000 ft | 458 kts | 279° |
| 2026-04-21 20:50 | 16.88255 | 55.62725 | 36000 ft | 458 kts | 279° |
| 2026-04-21 20:50 | 16.88587 | 55.56092 | 35999 ft | 459 kts | 270° |
| 2026-04-21 20:51 | 16.88619 | 55.49454 | 36001 ft | 458 kts | 271° |
| 2026-04-21 20:51 | 16.88652 | 55.42853 | 36000 ft | 458 kts | 271° |
| 2026-04-21 20:52 | 16.88685 | 55.36168 | 36000 ft | 458 kts | 271° |
| 2026-04-21 20:52 | 16.88702 | 55.29514 | 36000 ft | 458 kts | 271° |
| 2026-04-21 20:53 | 16.88729 | 55.22866 | 36000 ft | 458 kts | 271° |
| 2026-04-21 20:53 | 16.88761 | 55.16271 | 36000 ft | 458 kts | 271° |
| 2026-04-21 20:54 | 16.88794 | 55.09615 | 36000 ft | 458 kts | 271° |
| 2026-04-21 20:54 | 16.88827 | 55.02986 | 36000 ft | 458 kts | 271° |
| 2026-04-21 20:55 | 16.88859 | 54.96343 | 36000 ft | 458 kts | 271° |
| 2026-04-21 20:55 | 16.88892 | 54.89695 | 36000 ft | 458 kts | 271° |
| 2026-04-21 20:56 | 16.88924 | 54.83092 | 36000 ft | 458 kts | 271° |
| 2026-04-21 20:56 | 16.88956 | 54.76437 | 36001 ft | 458 kts | 271° |
| 2026-04-21 20:57 | 16.88987 | 54.69805 | 36000 ft | 458 kts | 271° |
| 2026-04-21 20:57 | 16.89017 | 54.63132 | 36000 ft | 458 kts | 271° |
| 2026-04-21 20:58 | 16.89040 | 54.56503 | 36000 ft | 458 kts | 271° |
| 2026-04-21 20:58 | 16.89070 | 54.49887 | 36000 ft | 458 kts | 271° |
| 2026-04-21 20:59 | 16.89081 | 54.43238 | 36000 ft | 458 kts | 271° |
| 2026-04-21 20:59 | 16.89080 | 54.36586 | 36000 ft | 458 kts | 271° |
| 2026-04-21 21:00 | 16.89064 | 54.29939 | 36000 ft | 458 kts | 270° |
| 2026-04-21 21:00 | 16.89055 | 54.23296 | 36000 ft | 458 kts | 270° |
| 2026-04-21 21:01 | 16.89051 | 54.16656 | 36000 ft | 458 kts | 270° |
| 2026-04-21 21:01 | 16.89049 | 54.10020 | 36000 ft | 458 kts | 270° |
| 2026-04-21 21:02 | 16.89046 | 54.03380 | 36000 ft | 458 kts | 270° |
| 2026-04-21 21:02 | 16.89043 | 53.96777 | 36000 ft | 458 kts | 270° |
| 2026-04-21 21:03 | 16.89038 | 53.90113 | 36000 ft | 458 kts | 270° |
| 2026-04-21 21:03 | 16.89030 | 53.83496 | 36000 ft | 458 kts | 270° |
| 2026-04-21 21:04 | 16.89053 | 53.76849 | 36002 ft | 458 kts | 272° |
| 2026-04-21 21:04 | 16.89233 | 53.70204 | 36000 ft | 458 kts | 272° |
| 2026-04-21 21:05 | 16.89384 | 53.63558 | 36000 ft | 458 kts | 272° |
| 2026-04-21 21:05 | 16.89533 | 53.56939 | 36000 ft | 458 kts | 272° |
| 2026-04-21 21:06 | 16.89683 | 53.50280 | 36000 ft | 458 kts | 272° |
| 2026-04-21 21:06 | 16.89832 | 53.43679 | 36000 ft | 458 kts | 272° |
| 2026-04-21 21:07 | 16.89982 | 53.37031 | 36000 ft | 458 kts | 272° |
| 2026-04-21 21:07 | 16.90117 | 53.30392 | 36000 ft | 458 kts | 272° |
| 2026-04-21 21:08 | 16.90259 | 53.23756 | 36000 ft | 458 kts | 272° |
| 2026-04-21 21:08 | 16.90406 | 53.17122 | 36000 ft | 458 kts | 272° |
| 2026-04-21 21:09 | 16.90554 | 53.10492 | 36000 ft | 458 kts | 272° |
| 2026-04-21 21:09 | 16.90700 | 53.03866 | 36000 ft | 458 kts | 272° |
| 2026-04-21 21:10 | 16.90843 | 52.97184 | 36000 ft | 458 kts | 272° |
| 2026-04-21 21:10 | 16.91361 | 52.90599 | 36000 ft | 458 kts | 279° |
| 2026-04-21 21:11 | 16.92228 | 52.83983 | 36000 ft | 458 kts | 278° |
| 2026-04-21 21:11 | 16.93053 | 52.77489 | 36000 ft | 458 kts | 278° |
| 2026-04-21 21:12 | 16.93891 | 52.70871 | 36000 ft | 458 kts | 278° |
| 2026-04-21 21:12 | 16.94726 | 52.64276 | 36000 ft | 458 kts | 278° |
| 2026-04-21 21:13 | 16.95556 | 52.57721 | 36000 ft | 458 kts | 278° |
| 2026-04-21 21:13 | 16.96388 | 52.51132 | 36000 ft | 458 kts | 278° |
| 2026-04-21 21:14 | 16.97220 | 52.44523 | 36000 ft | 458 kts | 278° |
| 2026-04-21 21:14 | 16.98041 | 52.37916 | 36001 ft | 458 kts | 278° |
| 2026-04-21 21:15 | 16.98881 | 52.31343 | 36000 ft | 458 kts | 278° |
| 2026-04-21 21:15 | 16.99681 | 52.24765 | 36000 ft | 458 kts | 278° |
| 2026-04-21 21:16 | 17.00494 | 52.18140 | 36000 ft | 458 kts | 278° |
| 2026-04-21 21:16 | 17.01302 | 52.11552 | 36000 ft | 458 kts | 278° |
| 2026-04-21 21:17 | 17.02103 | 52.05033 | 36000 ft | 458 kts | 278° |
| 2026-04-21 21:17 | 17.02913 | 51.98427 | 36000 ft | 458 kts | 278° |
| 2026-04-21 21:18 | 17.03723 | 51.91828 | 36000 ft | 458 kts | 278° |
| 2026-04-21 21:18 | 17.04536 | 51.85213 | 36000 ft | 458 kts | 278° |
| 2026-04-21 21:19 | 17.05346 | 51.78609 | 36000 ft | 458 kts | 278° |
| 2026-04-21 21:19 | 17.06154 | 51.72026 | 36000 ft | 458 kts | 278° |
| 2026-04-21 21:20 | 17.06962 | 51.65445 | 36000 ft | 458 kts | 278° |
| 2026-04-21 21:20 | 17.07769 | 51.58863 | 36000 ft | 458 kts | 278° |
| 2026-04-21 21:21 | 17.08577 | 51.52276 | 36000 ft | 458 kts | 278° |
| 2026-04-21 21:21 | 17.09384 | 51.45701 | 36000 ft | 458 kts | 278° |
| 2026-04-21 21:22 | 17.10196 | 51.39084 | 36001 ft | 458 kts | 278° |
| 2026-04-21 21:22 | 17.11014 | 51.32485 | 36000 ft | 458 kts | 277° |
| 2026-04-21 21:23 | 17.11800 | 51.25911 | 36000 ft | 458 kts | 278° |
| 2026-04-21 21:23 | 17.12601 | 51.19315 | 36000 ft | 458 kts | 278° |
| 2026-04-21 21:24 | 17.13417 | 51.12723 | 36000 ft | 458 kts | 278° |
| 2026-04-21 21:24 | 17.14257 | 51.06099 | 36000 ft | 458 kts | 278° |
| 2026-04-21 21:25 | 17.15073 | 50.99521 | 36000 ft | 458 kts | 278° |
| 2026-04-21 21:25 | 17.15888 | 50.92935 | 36000 ft | 458 kts | 278° |
| 2026-04-21 21:26 | 17.16701 | 50.86362 | 36000 ft | 458 kts | 278° |
| 2026-04-21 21:26 | 17.17518 | 50.79753 | 36000 ft | 458 kts | 278° |
| 2026-04-21 21:27 | 17.18331 | 50.73179 | 36000 ft | 458 kts | 278° |
| 2026-04-21 21:27 | 17.19147 | 50.66569 | 36000 ft | 458 kts | 278° |
| 2026-04-21 21:28 | 17.19956 | 50.60007 | 36000 ft | 458 kts | 278° |
| 2026-04-21 21:29 | 17.21168 | 50.50132 | 36000 ft | 457 kts | 278° |
| 2026-04-21 21:29 | 17.21964 | 50.43525 | 36001 ft | 457 kts | 278° |
| 2026-04-21 21:30 | 17.22814 | 50.36974 | 36000 ft | 457 kts | 278° |
| 2026-04-21 21:30 | 17.23614 | 50.30386 | 36001 ft | 457 kts | 277° |
| 2026-04-21 21:31 | 17.24419 | 50.23786 | 36000 ft | 457 kts | 278° |
| 2026-04-21 21:31 | 17.25233 | 50.17168 | 36000 ft | 457 kts | 278° |
| 2026-04-21 21:32 | 17.26042 | 50.10601 | 36000 ft | 457 kts | 278° |
| 2026-04-21 21:32 | 17.26850 | 50.04031 | 36000 ft | 457 kts | 278° |
| 2026-04-21 21:33 | 17.27657 | 49.97430 | 36000 ft | 457 kts | 278° |
| 2026-04-21 21:33 | 17.29161 | 49.91059 | 36024 ft | 456 kts | 301° |
| 2026-04-21 21:34 | 17.32817 | 49.85578 | 36006 ft | 457 kts | 306° |
| 2026-04-21 21:34 | 17.36559 | 49.80235 | 35999 ft | 457 kts | 307° |
| 2026-04-21 21:35 | 17.40334 | 49.74921 | 36001 ft | 457 kts | 307° |
| 2026-04-21 21:35 | 17.44133 | 49.69583 | 36000 ft | 457 kts | 307° |
| 2026-04-21 21:36 | 17.47919 | 49.64265 | 36000 ft | 457 kts | 307° |
| 2026-04-21 21:36 | 17.51722 | 49.58920 | 36000 ft | 457 kts | 307° |
| 2026-04-21 21:37 | 17.55502 | 49.53604 | 36000 ft | 457 kts | 307° |
| 2026-04-21 21:37 | 17.59297 | 49.48258 | 36000 ft | 457 kts | 307° |
| 2026-04-21 21:38 | 17.63090 | 49.42925 | 36000 ft | 457 kts | 308° |
| 2026-04-21 21:38 | 17.66884 | 49.37581 | 36000 ft | 457 kts | 307° |
| 2026-04-21 21:39 | 17.70628 | 49.32243 | 36000 ft | 457 kts | 307° |
| 2026-04-21 21:39 | 17.74386 | 49.26863 | 36000 ft | 457 kts | 307° |
| 2026-04-21 21:40 | 17.78148 | 49.21509 | 36000 ft | 457 kts | 307° |
| 2026-04-21 21:40 | 17.81906 | 49.16164 | 36000 ft | 457 kts | 307° |
| 2026-04-21 21:41 | 17.85696 | 49.10773 | 36000 ft | 457 kts | 307° |
| 2026-04-21 21:41 | 17.89455 | 49.05428 | 36000 ft | 457 kts | 307° |
| 2026-04-21 21:42 | 17.93237 | 49.00050 | 36000 ft | 457 kts | 307° |
| 2026-04-21 21:42 | 17.96997 | 48.94703 | 36000 ft | 457 kts | 307° |
| 2026-04-21 21:43 | 18.00781 | 48.89323 | 36000 ft | 457 kts | 307° |
| 2026-04-21 21:43 | 18.04540 | 48.83975 | 36000 ft | 457 kts | 307° |
| 2026-04-21 21:44 | 18.08314 | 48.78609 | 36000 ft | 457 kts | 307° |
| 2026-04-21 21:44 | 18.12086 | 48.73254 | 36000 ft | 457 kts | 307° |
| 2026-04-21 21:45 | 18.15846 | 48.67918 | 36000 ft | 457 kts | 307° |
| 2026-04-21 21:45 | 18.19645 | 48.62513 | 36000 ft | 457 kts | 307° |
| 2026-04-21 21:46 | 18.23411 | 48.57151 | 36000 ft | 457 kts | 307° |
| 2026-04-21 21:46 | 18.27162 | 48.51802 | 36000 ft | 457 kts | 307° |
| 2026-04-21 21:47 | 18.30934 | 48.46398 | 36001 ft | 457 kts | 307° |
| 2026-04-21 21:47 | 18.34685 | 48.41025 | 36000 ft | 457 kts | 307° |
| 2026-04-21 21:48 | 18.38407 | 48.35636 | 36000 ft | 457 kts | 307° |
| 2026-04-21 21:48 | 18.42118 | 48.30207 | 36000 ft | 457 kts | 306° |
| 2026-04-21 21:49 | 18.45841 | 48.24800 | 36000 ft | 457 kts | 307° |
| 2026-04-21 21:49 | 18.49569 | 48.19382 | 36001 ft | 457 kts | 307° |
| 2026-04-21 21:50 | 18.53298 | 48.13991 | 36000 ft | 457 kts | 306° |
| 2026-04-21 21:50 | 18.57026 | 48.08560 | 36000 ft | 457 kts | 306° |
| 2026-04-21 21:51 | 18.60718 | 48.03175 | 36000 ft | 457 kts | 306° |
| 2026-04-21 21:51 | 18.64439 | 47.97747 | 36000 ft | 457 kts | 307° |
| 2026-04-21 21:52 | 18.68154 | 47.92328 | 36000 ft | 457 kts | 307° |
| 2026-04-21 21:52 | 18.71884 | 47.86886 | 36000 ft | 457 kts | 307° |
| 2026-04-21 21:53 | 18.75592 | 47.81477 | 36000 ft | 457 kts | 307° |
| 2026-04-21 21:53 | 18.79292 | 47.76077 | 36000 ft | 457 kts | 307° |
| 2026-04-21 21:54 | 18.83010 | 47.70650 | 36000 ft | 457 kts | 307° |
| 2026-04-21 21:54 | 18.86713 | 47.65241 | 36000 ft | 457 kts | 307° |
| 2026-04-21 21:55 | 18.90426 | 47.59807 | 36000 ft | 457 kts | 307° |
| 2026-04-21 21:55 | 18.94140 | 47.54390 | 36000 ft | 457 kts | 307° |
| 2026-04-21 21:56 | 18.97846 | 47.48964 | 36000 ft | 457 kts | 306° |
| 2026-04-21 21:56 | 19.01534 | 47.43534 | 36000 ft | 457 kts | 306° |
| 2026-04-21 21:57 | 19.05221 | 47.38102 | 36000 ft | 457 kts | 306° |
| 2026-04-21 21:57 | 19.08923 | 47.32629 | 36000 ft | 457 kts | 306° |
| 2026-04-21 21:58 | 19.12612 | 47.27164 | 36000 ft | 457 kts | 306° |
| 2026-04-21 21:58 | 19.16305 | 47.21726 | 36000 ft | 457 kts | 306° |
| 2026-04-21 21:59 | 19.19993 | 47.16291 | 36000 ft | 457 kts | 306° |
| 2026-04-21 21:59 | 19.23699 | 47.10827 | 36000 ft | 457 kts | 306° |
| 2026-04-21 22:00 | 19.27394 | 47.05381 | 36000 ft | 457 kts | 306° |
| 2026-04-21 22:00 | 19.31100 | 46.99915 | 36000 ft | 457 kts | 306° |
| 2026-04-21 22:01 | 19.34798 | 46.94457 | 36000 ft | 457 kts | 306° |
| 2026-04-21 22:01 | 19.38479 | 46.89008 | 36000 ft | 457 kts | 306° |
| 2026-04-21 22:02 | 19.42170 | 46.83573 | 36001 ft | 457 kts | 306° |
| 2026-04-21 22:02 | 19.45849 | 46.78070 | 36000 ft | 456 kts | 306° |
| 2026-04-21 22:03 | 19.49505 | 46.72580 | 36000 ft | 456 kts | 306° |
| 2026-04-21 22:03 | 19.53163 | 46.67082 | 36000 ft | 456 kts | 306° |
| 2026-04-21 22:04 | 19.56797 | 46.61620 | 36000 ft | 456 kts | 306° |
| 2026-04-21 22:04 | 19.60446 | 46.56134 | 36000 ft | 456 kts | 306° |
| 2026-04-21 22:05 | 19.64105 | 46.50634 | 36000 ft | 456 kts | 306° |
| 2026-04-21 22:05 | 19.67772 | 46.45121 | 36000 ft | 456 kts | 306° |
| 2026-04-21 22:06 | 19.71425 | 46.39630 | 36000 ft | 456 kts | 306° |
| 2026-04-21 22:06 | 19.75092 | 46.34115 | 36000 ft | 456 kts | 306° |
| 2026-04-21 22:07 | 19.78709 | 46.28618 | 36000 ft | 456 kts | 306° |
| 2026-04-21 22:07 | 19.82362 | 46.23117 | 36000 ft | 456 kts | 306° |
| 2026-04-21 22:08 | 19.86016 | 46.17622 | 36000 ft | 456 kts | 306° |
| 2026-04-21 22:08 | 19.89688 | 46.12103 | 36000 ft | 456 kts | 306° |
| 2026-04-21 22:09 | 19.93336 | 46.06618 | 36000 ft | 456 kts | 306° |
| 2026-04-21 22:09 | 19.96983 | 46.01135 | 36000 ft | 456 kts | 306° |
| 2026-04-21 22:10 | 20.00652 | 45.95620 | 36000 ft | 456 kts | 306° |
| 2026-04-21 22:10 | 20.04309 | 45.90122 | 36000 ft | 456 kts | 306° |
| 2026-04-21 22:11 | 20.07981 | 45.84602 | 36000 ft | 456 kts | 306° |
| 2026-04-21 22:11 | 20.11642 | 45.79105 | 36000 ft | 456 kts | 306° |
| 2026-04-21 22:12 | 20.15323 | 45.73592 | 36000 ft | 456 kts | 306° |
| 2026-04-21 22:12 | 20.18980 | 45.68096 | 36000 ft | 456 kts | 306° |
| 2026-04-21 22:13 | 20.22622 | 45.62620 | 36000 ft | 456 kts | 306° |
| 2026-04-21 22:13 | 20.26298 | 45.57093 | 36000 ft | 456 kts | 306° |
| 2026-04-21 22:14 | 20.29956 | 45.51593 | 36000 ft | 456 kts | 306° |
| 2026-04-21 22:14 | 20.33611 | 45.46095 | 36000 ft | 456 kts | 306° |
| 2026-04-21 22:15 | 20.37256 | 45.40612 | 36000 ft | 456 kts | 306° |
| 2026-04-21 22:15 | 20.40916 | 45.35104 | 36000 ft | 456 kts | 306° |
| 2026-04-21 22:16 | 20.44559 | 45.29565 | 36000 ft | 456 kts | 306° |
| 2026-04-21 22:16 | 20.48196 | 45.24033 | 35997 ft | 456 kts | 302° |
| 2026-04-21 22:16 | 20.49512 | 45.20983 | 36008 ft | 455 kts | 285° |
| 2026-04-21 22:17 | 20.49883 | 45.17636 | 36005 ft | 456 kts | 266° |
| 2026-04-21 22:17 | 20.48656 | 45.11030 | 36002 ft | 456 kts | 258° |
| 2026-04-21 22:18 | 20.47333 | 45.04437 | 36000 ft | 456 kts | 258° |
| 2026-04-21 22:18 | 20.45996 | 44.97854 | 36000 ft | 456 kts | 258° |
| 2026-04-21 22:19 | 20.44652 | 44.91243 | 36000 ft | 456 kts | 258° |
| 2026-04-21 22:19 | 20.43315 | 44.84666 | 36000 ft | 456 kts | 258° |
| 2026-04-21 22:20 | 20.41977 | 44.78085 | 36000 ft | 456 kts | 258° |
| 2026-04-21 22:20 | 20.40632 | 44.71464 | 36000 ft | 456 kts | 258° |
| 2026-04-21 22:21 | 20.39288 | 44.64855 | 36000 ft | 456 kts | 258° |
| 2026-04-21 22:21 | 20.37951 | 44.58275 | 36000 ft | 456 kts | 258° |
| 2026-04-21 22:22 | 20.36611 | 44.51684 | 36000 ft | 456 kts | 258° |
| 2026-04-21 22:22 | 20.35273 | 44.45099 | 36000 ft | 456 kts | 258° |
| 2026-04-21 22:23 | 20.33927 | 44.38477 | 36000 ft | 456 kts | 258° |
| 2026-04-21 22:23 | 20.32577 | 44.31876 | 36000 ft | 456 kts | 258° |
| 2026-04-21 22:24 | 20.31227 | 44.25317 | 36000 ft | 456 kts | 258° |
| 2026-04-21 22:24 | 20.29885 | 44.18729 | 36000 ft | 456 kts | 258° |
| 2026-04-21 22:25 | 20.28545 | 44.12135 | 36000 ft | 456 kts | 258° |
| 2026-04-21 22:25 | 20.27212 | 44.05579 | 36000 ft | 456 kts | 258° |
| 2026-04-21 22:26 | 20.25876 | 43.99003 | 36000 ft | 456 kts | 258° |
| 2026-04-21 22:26 | 20.24534 | 43.92406 | 36000 ft | 456 kts | 258° |
| 2026-04-21 22:27 | 20.23197 | 43.85826 | 36000 ft | 456 kts | 258° |
| 2026-04-21 22:27 | 20.21857 | 43.79235 | 36000 ft | 456 kts | 258° |
| 2026-04-21 22:28 | 20.20516 | 43.72638 | 36000 ft | 456 kts | 258° |
| 2026-04-21 22:28 | 20.19180 | 43.66070 | 36000 ft | 456 kts | 258° |
| 2026-04-21 22:29 | 20.17838 | 43.59469 | 36000 ft | 456 kts | 258° |
| 2026-04-21 22:29 | 20.16504 | 43.52907 | 36000 ft | 456 kts | 258° |
| 2026-04-21 22:30 | 20.15163 | 43.46310 | 36000 ft | 456 kts | 258° |
| 2026-04-21 22:30 | 20.13829 | 43.39751 | 36000 ft | 456 kts | 258° |
| 2026-04-21 22:31 | 20.12480 | 43.33136 | 36000 ft | 456 kts | 258° |
| 2026-04-21 22:31 | 20.11125 | 43.26572 | 36000 ft | 456 kts | 258° |
| 2026-04-21 22:32 | 20.09792 | 43.20029 | 36003 ft | 456 kts | 258° |
| 2026-04-21 22:32 | 20.08456 | 43.13467 | 36003 ft | 456 kts | 258° |
| 2026-04-21 22:33 | 20.07117 | 43.06891 | 36003 ft | 456 kts | 258° |
| 2026-04-21 22:33 | 20.05778 | 43.00328 | 36004 ft | 456 kts | 258° |
| 2026-04-21 22:34 | 20.04424 | 42.93720 | 36003 ft | 456 kts | 258° |
| 2026-04-21 22:34 | 20.03070 | 42.87165 | 36004 ft | 456 kts | 258° |
| 2026-04-21 22:35 | 20.01691 | 42.80632 | 36004 ft | 456 kts | 258° |
| 2026-04-21 22:35 | 20.00293 | 42.74073 | 36004 ft | 456 kts | 258° |
| 2026-04-21 22:36 | 19.98185 | 42.64206 | 36004 ft | 455 kts | 261° |
| 2026-04-21 22:36 | 19.98047 | 42.60864 | 36036 ft | 454 kts | 277° |
| 2026-04-21 22:36 | 19.98494 | 42.57536 | 36035 ft | 457 kts | 279° |
| 2026-04-21 22:37 | 19.99293 | 42.50876 | 36002 ft | 455 kts | 278° |
| 2026-04-21 22:37 | 20.00106 | 42.44225 | 36004 ft | 456 kts | 278° |
| 2026-04-21 22:38 | 20.00924 | 42.37545 | 36004 ft | 455 kts | 278° |
| 2026-04-21 22:38 | 20.01726 | 42.30889 | 36003 ft | 455 kts | 277° |
| 2026-04-21 22:39 | 20.02530 | 42.24195 | 36003 ft | 455 kts | 278° |
| 2026-04-21 22:39 | 20.03345 | 42.17528 | 36003 ft | 455 kts | 278° |
| 2026-04-21 22:40 | 20.04164 | 42.10844 | 36003 ft | 455 kts | 278° |
| 2026-04-21 22:40 | 20.04978 | 42.04206 | 36003 ft | 455 kts | 278° |
| 2026-04-21 22:41 | 20.05798 | 41.97516 | 36003 ft | 455 kts | 278° |
| 2026-04-21 22:41 | 20.06613 | 41.90866 | 36003 ft | 455 kts | 278° |
| 2026-04-21 22:42 | 20.07431 | 41.84204 | 36004 ft | 455 kts | 278° |
| 2026-04-21 22:42 | 20.08249 | 41.77528 | 36004 ft | 455 kts | 278° |
| 2026-04-21 22:43 | 20.09065 | 41.70871 | 36004 ft | 455 kts | 278° |
| 2026-04-21 22:43 | 20.09881 | 41.64215 | 36004 ft | 455 kts | 278° |
| 2026-04-21 22:44 | 20.10700 | 41.57535 | 36004 ft | 455 kts | 278° |
| 2026-04-21 22:44 | 20.11516 | 41.50877 | 36004 ft | 455 kts | 278° |
| 2026-04-21 22:45 | 20.12334 | 41.44208 | 36004 ft | 455 kts | 278° |
| 2026-04-21 22:45 | 20.13149 | 41.37557 | 36004 ft | 455 kts | 278° |
| 2026-04-21 22:46 | 20.13943 | 41.30961 | 36003 ft | 455 kts | 277° |
| 2026-04-21 22:46 | 20.14747 | 41.24273 | 36003 ft | 455 kts | 278° |
| 2026-04-21 22:47 | 20.15562 | 41.17606 | 36003 ft | 455 kts | 278° |
| 2026-04-21 22:47 | 20.16375 | 41.10965 | 36003 ft | 455 kts | 278° |
| 2026-04-21 22:48 | 20.17195 | 41.04272 | 36003 ft | 455 kts | 278° |
| 2026-04-21 22:48 | 20.18010 | 40.97617 | 36003 ft | 455 kts | 278° |
| 2026-04-21 22:49 | 20.18830 | 40.90923 | 35910 ft | 458 kts | 278° |
| 2026-04-21 22:49 | 20.19240 | 40.87576 | 35333 ft | 459 kts | 278° |
| 2026-04-21 22:49 | 20.19648 | 40.84221 | 34730 ft | 458 kts | 278° |
| 2026-04-21 22:50 | 20.20062 | 40.80833 | 34172 ft | 458 kts | 278° |
| 2026-04-21 22:50 | 20.20469 | 40.77491 | 33634 ft | 455 kts | 278° |
| 2026-04-21 22:50 | 20.20864 | 40.74228 | 33106 ft | 451 kts | 278° |
| 2026-04-21 22:50 | 20.21125 | 40.72066 | 32760 ft | 449 kts | 278° |
| 2026-04-21 22:51 | 20.21578 | 40.68790 | 32189 ft | 445 kts | 285° |
| 2026-04-21 22:51 | 20.22702 | 40.65783 | 31773 ft | 440 kts | 299° |
| 2026-04-21 22:51 | 20.24167 | 40.62922 | 31347 ft | 438 kts | 298° |
| 2026-04-21 22:51 | 20.25573 | 40.60057 | 30882 ft | 435 kts | 298° |
| 2026-04-21 22:52 | 20.26963 | 40.57244 | 30430 ft | 432 kts | 298° |
| 2026-04-21 22:52 | 20.28375 | 40.54414 | 29980 ft | 429 kts | 299° |
| 2026-04-21 22:52 | 20.29756 | 40.51648 | 29542 ft | 426 kts | 299° |
| 2026-04-21 22:52 | 20.31147 | 40.48864 | 29102 ft | 423 kts | 299° |
| 2026-04-21 22:53 | 20.32522 | 40.46112 | 28668 ft | 420 kts | 299° |
| 2026-04-21 22:53 | 20.33891 | 40.43370 | 28236 ft | 417 kts | 299° |
| 2026-04-21 22:53 | 20.35230 | 40.40688 | 27813 ft | 414 kts | 299° |
| 2026-04-21 22:53 | 20.36584 | 40.37976 | 27385 ft | 411 kts | 299° |
| 2026-04-21 22:54 | 20.37912 | 40.35312 | 26966 ft | 409 kts | 299° |
| 2026-04-21 22:54 | 20.39234 | 40.32636 | 26554 ft | 406 kts | 298° |
| 2026-04-21 22:54 | 20.40527 | 40.29998 | 26147 ft | 403 kts | 298° |
| 2026-04-21 22:54 | 20.41849 | 40.27340 | 25728 ft | 401 kts | 299° |
| 2026-04-21 22:55 | 20.43144 | 40.24773 | 25302 ft | 398 kts | 298° |
| 2026-04-21 22:55 | 20.44439 | 40.22180 | 24867 ft | 396 kts | 298° |
| 2026-04-21 22:55 | 20.45733 | 40.19572 | 24431 ft | 393 kts | 298° |
| 2026-04-21 22:55 | 20.46994 | 40.17030 | 24004 ft | 390 kts | 298° |
| 2026-04-21 22:56 | 20.48247 | 40.14499 | 23581 ft | 388 kts | 298° |
| 2026-04-21 22:56 | 20.49514 | 40.11941 | 23154 ft | 385 kts | 298° |
| 2026-04-21 22:56 | 20.50746 | 40.09450 | 22739 ft | 383 kts | 298° |
| 2026-04-21 22:56 | 20.51990 | 40.06937 | 22321 ft | 380 kts | 298° |
| 2026-04-21 22:57 | 20.53211 | 40.04469 | 21910 ft | 378 kts | 298° |
| 2026-04-21 22:57 | 20.54442 | 40.01982 | 21495 ft | 376 kts | 298° |
| 2026-04-21 22:57 | 20.55660 | 39.99519 | 21085 ft | 373 kts | 298° |
| 2026-04-21 22:57 | 20.56864 | 39.97087 | 20680 ft | 371 kts | 298° |
| 2026-04-21 22:58 | 20.58046 | 39.94696 | 20282 ft | 369 kts | 298° |
| 2026-04-21 22:58 | 20.59246 | 39.92271 | 19878 ft | 366 kts | 298° |
| 2026-04-21 22:58 | 20.60422 | 39.89894 | 19482 ft | 364 kts | 298° |
| 2026-04-21 22:58 | 20.61601 | 39.87511 | 19088 ft | 362 kts | 298° |
| 2026-04-21 22:59 | 20.62774 | 39.85139 | 18693 ft | 360 kts | 298° |
| 2026-04-21 22:59 | 20.63931 | 39.82801 | 18303 ft | 358 kts | 298° |
| 2026-04-21 22:59 | 20.65093 | 39.80451 | 17912 ft | 355 kts | 298° |
| 2026-04-21 22:59 | 20.66242 | 39.78128 | 17524 ft | 353 kts | 298° |
| 2026-04-21 23:00 | 20.67386 | 39.75814 | 17139 ft | 351 kts | 298° |
| 2026-04-21 23:00 | 20.68117 | 39.74337 | 16892 ft | 350 kts | 298° |
| 2026-04-21 23:00 | 20.69040 | 39.72467 | 16581 ft | 348 kts | 298° |
| 2026-04-21 23:00 | 20.69711 | 39.71111 | 16355 ft | 347 kts | 298° |
| 2026-04-21 23:01 | 20.70822 | 39.68862 | 15981 ft | 345 kts | 298° |
| 2026-04-21 23:01 | 20.71939 | 39.66602 | 15605 ft | 343 kts | 298° |
| 2026-04-21 23:01 | 20.73064 | 39.64325 | 15226 ft | 341 kts | 298° |
| 2026-04-21 23:01 | 20.74158 | 39.62107 | 14938 ft | 339 kts | 298° |
| 2026-04-21 23:02 | 20.75257 | 39.59878 | 14630 ft | 339 kts | 298° |
| 2026-04-21 23:02 | 20.76342 | 39.57672 | 14279 ft | 337 kts | 298° |
| 2026-04-21 23:02 | 20.77430 | 39.55453 | 13915 ft | 335 kts | 298° |
| 2026-04-21 23:02 | 20.78531 | 39.53280 | 13552 ft | 333 kts | 304° |
| 2026-04-21 23:03 | 20.80002 | 39.51378 | 13214 ft | 331 kts | 314° |
| 2026-04-21 23:03 | 20.81558 | 39.49558 | 12845 ft | 330 kts | 312° |
| 2026-04-21 23:03 | 20.83043 | 39.47716 | 12482 ft | 328 kts | 311° |
| 2026-04-21 23:03 | 20.84510 | 39.45899 | 12130 ft | 326 kts | 311° |
| 2026-04-21 23:04 | 20.86005 | 39.44047 | 11773 ft | 324 kts | 311° |
| 2026-04-21 23:04 | 20.87464 | 39.42230 | 11424 ft | 323 kts | 311° |
| 2026-04-21 23:04 | 20.88902 | 39.40430 | 11080 ft | 320 kts | 311° |
| 2026-04-21 23:04 | 20.90352 | 39.38661 | 10892 ft | 314 kts | 312° |
| 2026-04-21 23:05 | 20.91782 | 39.36905 | 10773 ft | 311 kts | 311° |
| 2026-04-21 23:05 | 20.93175 | 39.35171 | 10646 ft | 307 kts | 311° |
| 2026-04-21 23:05 | 20.94559 | 39.33456 | 10521 ft | 303 kts | 316° |
| 2026-04-21 23:05 | 20.96282 | 39.32202 | 10427 ft | 300 kts | 336° |
| 2026-04-21 23:06 | 20.98208 | 39.31327 | 10280 ft | 296 kts | 336° |
| 2026-04-21 23:06 | 21.00041 | 39.30419 | 10141 ft | 291 kts | 335° |
| 2026-04-21 23:06 | 21.01874 | 39.29504 | 9830 ft | 289 kts | 336° |
| 2026-04-21 23:06 | 21.03691 | 39.28631 | 9573 ft | 283 kts | 342° |
| 2026-04-21 23:07 | 21.05635 | 39.28419 | 9561 ft | 287 kts | 10° |
| 2026-04-21 23:07 | 21.07582 | 39.28859 | 9400 ft | 288 kts | 11° |
| 2026-04-21 23:07 | 21.09555 | 39.29125 | 9108 ft | 286 kts | 5° |
| 2026-04-21 23:07 | 21.11514 | 39.29249 | 8816 ft | 284 kts | 3° |
| 2026-04-21 23:08 | 21.13486 | 39.29343 | 8517 ft | 283 kts | 2° |
| 2026-04-21 23:08 | 21.15454 | 39.29413 | 8214 ft | 281 kts | 2° |
| 2026-04-21 23:08 | 21.17405 | 39.29466 | 7911 ft | 280 kts | 2° |
| 2026-04-21 23:08 | 21.19324 | 39.29512 | 7613 ft | 279 kts | 1° |
| 2026-04-21 23:09 | 21.21275 | 39.29552 | 7309 ft | 278 kts | 1° |
| 2026-04-21 23:09 | 21.23206 | 39.29589 | 7008 ft | 276 kts | 1° |
| 2026-04-21 23:09 | 21.25111 | 39.29623 | 6711 ft | 275 kts | 1° |
| 2026-04-21 23:09 | 21.27027 | 39.29607 | 6399 ft | 274 kts | 353° |
| 2026-04-21 23:10 | 21.28845 | 39.29084 | 6112 ft | 273 kts | 339° |
| 2026-04-21 23:10 | 21.30599 | 39.28355 | 5809 ft | 272 kts | 340° |
| 2026-04-21 23:10 | 21.32378 | 39.27663 | 5499 ft | 271 kts | 340° |
| 2026-04-21 23:10 | 21.34137 | 39.26969 | 5194 ft | 269 kts | 340° |
| 2026-04-21 23:11 | 21.35899 | 39.26263 | 4891 ft | 268 kts | 340° |
| 2026-04-21 23:11 | 21.37641 | 39.25584 | 4603 ft | 267 kts | 341° |
| 2026-04-21 23:11 | 21.39377 | 39.24909 | 4326 ft | 266 kts | 340° |
| 2026-04-21 23:11 | 21.41118 | 39.24223 | 4048 ft | 265 kts | 340° |
| 2026-04-21 23:12 | 21.42836 | 39.23542 | 3777 ft | 259 kts | 340° |
| 2026-04-21 23:12 | 21.44452 | 39.22898 | 3713 ft | 240 kts | 340° |
| 2026-04-21 23:12 | 21.45958 | 39.22304 | 3679 ft | 221 kts | 340° |
| 2026-04-21 23:12 | 21.47333 | 39.21761 | 3642 ft | 201 kts | 340° |
| 2026-04-21 23:13 | 21.48574 | 39.21269 | 3682 ft | 174 kts | 340° |
| 2026-04-21 23:13 | 21.49623 | 39.20854 | 3620 ft | 154 kts | 341° |
| 2026-04-21 23:13 | 21.50608 | 39.20464 | 3453 ft | 149 kts | 341° |
| 2026-04-21 23:13 | 21.51580 | 39.20080 | 3281 ft | 149 kts | 341° |
| 2026-04-21 23:14 | 21.52547 | 39.19698 | 3106 ft | 148 kts | 341° |
| 2026-04-21 23:14 | 21.53506 | 39.19320 | 2905 ft | 148 kts | 341° |
| 2026-04-21 23:14 | 21.54472 | 39.18938 | 2697 ft | 147 kts | 341° |
| 2026-04-21 23:14 | 21.55427 | 39.18562 | 2494 ft | 147 kts | 341° |
| 2026-04-21 23:15 | 21.56388 | 39.18182 | 2290 ft | 146 kts | 341° |
| 2026-04-21 23:15 | 21.57327 | 39.17811 | 2091 ft | 146 kts | 341° |
| 2026-04-21 23:15 | 21.58281 | 39.17434 | 1889 ft | 145 kts | 341° |
| 2026-04-21 23:15 | 21.59231 | 39.17059 | 1689 ft | 145 kts | 341° |
| 2026-04-21 23:16 | 21.60173 | 39.16686 | 1492 ft | 144 kts | 341° |
| 2026-04-21 23:16 | 21.61115 | 39.16314 | 1295 ft | 144 kts | 341° |
| 2026-04-21 23:16 | 21.62053 | 39.15943 | 1100 ft | 144 kts | 341° |
| 2026-04-21 23:16 | 21.62990 | 39.15572 | 905 ft | 143 kts | 341° |
| 2026-04-21 23:17 | 21.63923 | 39.15202 | 713 ft | 142 kts | 340° |
| 2026-04-21 23:17 | 21.64851 | 39.14841 | 517 ft | 144 kts | 340° |
| 2026-04-21 23:17 | 21.65763 | 39.14468 | 366 ft | 140 kts | 340° |
| 2026-04-21 23:17 | 21.66696 | 39.14113 | 191 ft | 141 kts | 340° |
| 2026-04-21 23:18 | 21.67623 | 39.13748 | 32 ft | 137 kts | 342° |
| 2026-04-21 23:18 | 21.68358 | 39.13444 | 29 ft | 78 kts | 338° |
| 2026-04-21 23:18 | 21.68787 | 39.13275 | 29 ft | 64 kts | 341° |
| 2026-04-21 23:18 | 21.69070 | 39.13190 | 29 ft | 31 kts | 359° |
| 2026-04-21 23:19 | 21.69227 | 39.13203 | 29 ft | 13 kts | 11° |
| 2026-04-21 23:19 | 21.69294 | 39.13231 | 29 ft | 6 kts | 30° |
| 2026-04-21 23:19 | 21.69318 | 39.13251 | 29 ft | 3 kts | 39° |
| 2026-04-21 23:19 | 21.69350 | 39.13282 | 29 ft | 8 kts | 49° |
| 2026-04-21 23:20 | 21.69385 | 39.13353 | 30 ft | 11 kts | 69° |
| 2026-04-21 23:20 | 21.69425 | 39.13443 | 31 ft | 11 kts | 34° |
| 2026-04-21 23:20 | 21.69464 | 39.13472 | 32 ft | 4 kts | 54° |
| 2026-04-21 23:20 | 21.69481 | 39.13509 | 32 ft | 4 kts | 68° |
| 2026-04-21 23:21 | 21.69492 | 39.13541 | 33 ft | 6 kts | 70° |
| 2026-04-21 23:21 | 21.69497 | 39.13555 | 33 ft | 0 kts | 69° |